<?xml version="1.0" encoding="UTF-8"?>
<gpx version="1.1" creator="Endomondo.com" xsi:schemaLocation="http://www.topografix.com/GPX/1/1 http://www.topografix.com/GPX/1/1/gpx.xsd http://www.garmin.com/xmlschemas/GpxExtensions/v3 http://www.garmin.com/xmlschemas/GpxExtensionsv3.xsd http://www.garmin.com/xmlschemas/TrackPointExtension/v1 http://www.garmin.com/xmlschemas/TrackPointExtensionv1.xsd" xmlns="http://www.topografix.com/GPX/1/1" xmlns:gpxtpx="http://www.garmin.com/xmlschemas/TrackPointExtension/v1" xmlns:gpxx="http://www.garmin.com/xmlschemas/GpxExtensions/v3" xmlns:xsi="http://www.w3.org/2001/XMLSchema-instance">
  <metadata>
    <author>
      <name>Dmitry Levsevich</name>
      <email id="buhtuks" domain="gmail.com"/>
    </author>
    <link href="http://www.endomondo.com">
      <text>Endomondo</text>
    </link>
    <time>2012-09-17T15:01:51Z</time>
    <bounds minlat="53.9802615" minlon="26.9745527" maxlat="53.980245" maxlon="26.9740803"/>
  </metadata>
  <trk>
    <src>http://www.endomondo.com/</src>
    <link href="http://www.endomondo.com/workouts/rQjSrncyphw">
      <text>endomondo</text>
    </link>
    <type>MOUNTAIN_BIKING</type>
    <trkseg>
      <trkpt lat="53.9802615" lon="26.9745527">
        <time>2012-09-15T16:53:53Z</time>
      </trkpt>
      <trkpt lat="53.9802615" lon="26.9745527">
        <ele>194.0</ele>
        <time>2012-09-15T16:53:54Z</time>
      </trkpt>
      <trkpt lat="53.9803977" lon="26.9745073">
        <ele>194.0</ele>
        <time>2012-09-15T16:53:58Z</time>
      </trkpt>
      <trkpt lat="53.9806689" lon="26.9742747">
        <ele>193.0</ele>
        <time>2012-09-15T16:54:02Z</time>
      </trkpt>
      <trkpt lat="53.9809115" lon="26.9739768">
        <ele>193.0</ele>
        <time>2012-09-15T16:54:09Z</time>
      </trkpt>
      <trkpt lat="53.9811453" lon="26.973578">
        <ele>194.0</ele>
        <time>2012-09-15T16:54:17Z</time>
      </trkpt>
      <trkpt lat="53.9811292" lon="26.9733381">
        <ele>193.0</ele>
        <time>2012-09-15T16:54:21Z</time>
      </trkpt>
      <trkpt lat="53.9808799" lon="26.9729546">
        <ele>190.0</ele>
        <time>2012-09-15T16:54:27Z</time>
      </trkpt>
      <trkpt lat="53.9807597" lon="26.9727577">
        <ele>188.0</ele>
        <time>2012-09-15T16:54:31Z</time>
      </trkpt>
      <trkpt lat="53.9805221" lon="26.9723492">
        <ele>185.0</ele>
        <time>2012-09-15T16:54:37Z</time>
      </trkpt>
      <trkpt lat="53.9805567" lon="26.9719045">
        <ele>182.0</ele>
        <time>2012-09-15T16:54:44Z</time>
      </trkpt>
      <trkpt lat="53.9806441" lon="26.9713536">
        <ele>184.0</ele>
        <time>2012-09-15T16:54:50Z</time>
      </trkpt>
      <trkpt lat="53.9807536" lon="26.9707859">
        <ele>186.0</ele>
        <time>2012-09-15T16:54:55Z</time>
      </trkpt>
      <trkpt lat="53.9807897" lon="26.9702636">
        <ele>185.0</ele>
        <time>2012-09-15T16:55:01Z</time>
      </trkpt>
      <trkpt lat="53.980912" lon="26.9697798">
        <ele>187.0</ele>
        <time>2012-09-15T16:55:06Z</time>
      </trkpt>
      <trkpt lat="53.9811069" lon="26.9693106">
        <ele>188.0</ele>
        <time>2012-09-15T16:55:13Z</time>
      </trkpt>
      <trkpt lat="53.9813095" lon="26.9689503">
        <ele>185.0</ele>
        <time>2012-09-15T16:55:19Z</time>
      </trkpt>
      <trkpt lat="53.9815607" lon="26.9687285">
        <ele>178.0</ele>
        <time>2012-09-15T16:55:24Z</time>
      </trkpt>
      <trkpt lat="53.981744" lon="26.9683399">
        <ele>178.0</ele>
        <time>2012-09-15T16:55:32Z</time>
      </trkpt>
      <trkpt lat="53.9817653" lon="26.9677908">
        <ele>180.0</ele>
        <time>2012-09-15T16:55:38Z</time>
      </trkpt>
      <trkpt lat="53.9817618" lon="26.967508">
        <ele>178.0</ele>
        <time>2012-09-15T16:55:42Z</time>
      </trkpt>
      <trkpt lat="53.9817412" lon="26.9671985">
        <ele>177.0</ele>
        <time>2012-09-15T16:55:47Z</time>
      </trkpt>
      <trkpt lat="53.981839" lon="26.9666956">
        <ele>177.0</ele>
        <time>2012-09-15T16:55:54Z</time>
      </trkpt>
      <trkpt lat="53.9818586" lon="26.9661074">
        <ele>181.0</ele>
        <time>2012-09-15T16:56:01Z</time>
      </trkpt>
      <trkpt lat="53.9818586" lon="26.9661074">
        <time>2012-09-15T16:56:17Z</time>
      </trkpt>
    </trkseg>
    <trkseg>
      <trkpt lat="53.9818586" lon="26.9661074">
        <time>2012-09-15T16:56:19Z</time>
      </trkpt>
      <trkpt lat="53.9818586" lon="26.9661074">
        <time>2012-09-15T16:56:31Z</time>
      </trkpt>
    </trkseg>
    <trkseg>
      <trkpt lat="53.9818586" lon="26.9661074">
        <time>2012-09-15T16:56:36Z</time>
      </trkpt>
      <trkpt lat="53.9818776" lon="26.9660996">
        <ele>197.0</ele>
        <time>2012-09-15T16:56:36Z</time>
      </trkpt>
      <trkpt lat="53.9818776" lon="26.9660996">
        <time>2012-09-15T16:56:52Z</time>
      </trkpt>
    </trkseg>
    <trkseg>
      <trkpt lat="53.9818776" lon="26.9660996">
        <time>2012-09-15T16:56:57Z</time>
      </trkpt>
      <trkpt lat="53.9818703" lon="26.9660032">
        <ele>201.0</ele>
        <time>2012-09-15T16:56:57Z</time>
      </trkpt>
      <trkpt lat="53.9818703" lon="26.9660032">
        <time>2012-09-15T16:57:10Z</time>
      </trkpt>
    </trkseg>
    <trkseg>
      <trkpt lat="53.9818703" lon="26.9660032">
        <time>2012-09-15T16:57:14Z</time>
      </trkpt>
      <trkpt lat="53.9818808" lon="26.9659244">
        <ele>201.0</ele>
        <time>2012-09-15T16:57:14Z</time>
      </trkpt>
      <trkpt lat="53.9818808" lon="26.9659244">
        <time>2012-09-15T16:57:26Z</time>
      </trkpt>
    </trkseg>
    <trkseg>
      <trkpt lat="53.9818808" lon="26.9659244">
        <time>2012-09-15T16:57:29Z</time>
      </trkpt>
      <trkpt lat="53.982131" lon="26.9656114">
        <ele>192.0</ele>
        <time>2012-09-15T16:57:34Z</time>
      </trkpt>
      <trkpt lat="53.9821649" lon="26.9651128">
        <ele>187.0</ele>
        <time>2012-09-15T16:57:42Z</time>
      </trkpt>
      <trkpt lat="53.9819652" lon="26.9647035">
        <ele>183.0</ele>
        <time>2012-09-15T16:57:48Z</time>
      </trkpt>
      <trkpt lat="53.981822" lon="26.9642875">
        <ele>183.0</ele>
        <time>2012-09-15T16:57:52Z</time>
      </trkpt>
      <trkpt lat="53.9820748" lon="26.9639435">
        <ele>184.0</ele>
        <time>2012-09-15T16:57:59Z</time>
      </trkpt>
      <trkpt lat="53.9822732" lon="26.9635571">
        <ele>185.0</ele>
        <time>2012-09-15T16:58:05Z</time>
      </trkpt>
      <trkpt lat="53.9825374" lon="26.9634147">
        <ele>189.0</ele>
        <time>2012-09-15T16:58:11Z</time>
      </trkpt>
      <trkpt lat="53.9827255" lon="26.9629617">
        <ele>194.0</ele>
        <time>2012-09-15T16:58:18Z</time>
      </trkpt>
      <trkpt lat="53.9829972" lon="26.9627034">
        <ele>192.0</ele>
        <time>2012-09-15T16:58:23Z</time>
      </trkpt>
      <trkpt lat="53.9831645" lon="26.9622026">
        <ele>189.0</ele>
        <time>2012-09-15T16:58:31Z</time>
      </trkpt>
      <trkpt lat="53.983272" lon="26.9620071">
        <ele>190.0</ele>
        <time>2012-09-15T16:58:35Z</time>
      </trkpt>
      <trkpt lat="53.9835452" lon="26.9622122">
        <ele>193.0</ele>
        <time>2012-09-15T16:58:42Z</time>
      </trkpt>
      <trkpt lat="53.9837302" lon="26.962596">
        <ele>195.0</ele>
        <time>2012-09-15T16:58:49Z</time>
      </trkpt>
      <trkpt lat="53.9835699" lon="26.9629946">
        <ele>200.0</ele>
        <time>2012-09-15T16:58:58Z</time>
      </trkpt>
      <trkpt lat="53.9835922" lon="26.9632791">
        <ele>204.0</ele>
        <time>2012-09-15T16:59:04Z</time>
      </trkpt>
      <trkpt lat="53.9836989" lon="26.9634482">
        <ele>204.0</ele>
        <time>2012-09-15T16:59:08Z</time>
      </trkpt>
      <trkpt lat="53.9838306" lon="26.9634994">
        <ele>203.0</ele>
        <time>2012-09-15T16:59:13Z</time>
      </trkpt>
      <trkpt lat="53.9839799" lon="26.9635902">
        <ele>204.0</ele>
        <time>2012-09-15T16:59:19Z</time>
      </trkpt>
      <trkpt lat="53.9841868" lon="26.9639041">
        <ele>198.0</ele>
        <time>2012-09-15T16:59:27Z</time>
      </trkpt>
      <trkpt lat="53.9843133" lon="26.9640425">
        <ele>198.0</ele>
        <time>2012-09-15T16:59:32Z</time>
      </trkpt>
      <trkpt lat="53.9844556" lon="26.9640506">
        <ele>198.0</ele>
        <time>2012-09-15T16:59:38Z</time>
      </trkpt>
      <trkpt lat="53.9845924" lon="26.9640622">
        <ele>199.0</ele>
        <time>2012-09-15T16:59:43Z</time>
      </trkpt>
      <trkpt lat="53.9847429" lon="26.9640529">
        <ele>201.0</ele>
        <time>2012-09-15T16:59:48Z</time>
      </trkpt>
      <trkpt lat="53.9848787" lon="26.9639169">
        <ele>203.0</ele>
        <time>2012-09-15T16:59:53Z</time>
      </trkpt>
      <trkpt lat="53.985072" lon="26.9635212">
        <ele>201.0</ele>
        <time>2012-09-15T17:00:02Z</time>
      </trkpt>
      <trkpt lat="53.9851573" lon="26.9633323">
        <ele>204.0</ele>
        <time>2012-09-15T17:00:06Z</time>
      </trkpt>
      <trkpt lat="53.985234" lon="26.9631255">
        <ele>203.0</ele>
        <time>2012-09-15T17:00:10Z</time>
      </trkpt>
      <trkpt lat="53.9853306" lon="26.9626452">
        <ele>203.0</ele>
        <time>2012-09-15T17:00:19Z</time>
      </trkpt>
      <trkpt lat="53.9854213" lon="26.9624278">
        <ele>201.0</ele>
        <time>2012-09-15T17:00:24Z</time>
      </trkpt>
      <trkpt lat="53.985539" lon="26.962235">
        <ele>198.0</ele>
        <time>2012-09-15T17:00:29Z</time>
      </trkpt>
      <trkpt lat="53.9857386" lon="26.9618788">
        <ele>195.0</ele>
        <time>2012-09-15T17:00:36Z</time>
      </trkpt>
      <trkpt lat="53.9859325" lon="26.9614417">
        <ele>196.0</ele>
        <time>2012-09-15T17:00:42Z</time>
      </trkpt>
      <trkpt lat="53.9860653" lon="26.9609743">
        <ele>200.0</ele>
        <time>2012-09-15T17:00:48Z</time>
      </trkpt>
      <trkpt lat="53.9860917" lon="26.9606753">
        <ele>195.0</ele>
        <time>2012-09-15T17:00:52Z</time>
      </trkpt>
      <trkpt lat="53.9861592" lon="26.9601854">
        <ele>199.0</ele>
        <time>2012-09-15T17:00:58Z</time>
      </trkpt>
      <trkpt lat="53.986173" lon="26.9596847">
        <ele>203.0</ele>
        <time>2012-09-15T17:01:03Z</time>
      </trkpt>
      <trkpt lat="53.9861855" lon="26.9591053">
        <ele>205.0</ele>
        <time>2012-09-15T17:01:09Z</time>
      </trkpt>
      <trkpt lat="53.9862406" lon="26.9585396">
        <ele>207.0</ele>
        <time>2012-09-15T17:01:15Z</time>
      </trkpt>
      <trkpt lat="53.9862798" lon="26.9579398">
        <ele>207.0</ele>
        <time>2012-09-15T17:01:20Z</time>
      </trkpt>
      <trkpt lat="53.986218" lon="26.9572198">
        <ele>208.0</ele>
        <time>2012-09-15T17:01:26Z</time>
      </trkpt>
      <trkpt lat="53.9862085" lon="26.9565364">
        <ele>209.0</ele>
        <time>2012-09-15T17:01:32Z</time>
      </trkpt>
      <trkpt lat="53.9861681" lon="26.9558325">
        <ele>208.0</ele>
        <time>2012-09-15T17:01:38Z</time>
      </trkpt>
      <trkpt lat="53.9861459" lon="26.9552532">
        <ele>206.0</ele>
        <time>2012-09-15T17:01:43Z</time>
      </trkpt>
      <trkpt lat="53.9861283" lon="26.9546824">
        <ele>203.0</ele>
        <time>2012-09-15T17:01:49Z</time>
      </trkpt>
      <trkpt lat="53.9861139" lon="26.9541226">
        <ele>201.0</ele>
        <time>2012-09-15T17:01:54Z</time>
      </trkpt>
      <trkpt lat="53.9860825" lon="26.9535176">
        <ele>206.0</ele>
        <time>2012-09-15T17:02:00Z</time>
      </trkpt>
      <trkpt lat="53.985985" lon="26.9526932">
        <ele>207.0</ele>
        <time>2012-09-15T17:02:07Z</time>
      </trkpt>
      <trkpt lat="53.9859484" lon="26.9521576">
        <ele>207.0</ele>
        <time>2012-09-15T17:02:12Z</time>
      </trkpt>
      <trkpt lat="53.9859069" lon="26.951718">
        <ele>212.0</ele>
        <time>2012-09-15T17:02:21Z</time>
      </trkpt>
      <trkpt lat="53.9857725" lon="26.951658">
        <ele>211.0</ele>
        <time>2012-09-15T17:02:26Z</time>
      </trkpt>
      <trkpt lat="53.9856336" lon="26.9516454">
        <ele>209.0</ele>
        <time>2012-09-15T17:02:32Z</time>
      </trkpt>
      <trkpt lat="53.9853532" lon="26.9515846">
        <ele>202.0</ele>
        <time>2012-09-15T17:02:39Z</time>
      </trkpt>
      <trkpt lat="53.9851829" lon="26.9515781">
        <ele>203.0</ele>
        <time>2012-09-15T17:02:43Z</time>
      </trkpt>
      <trkpt lat="53.9848874" lon="26.9516232">
        <ele>204.0</ele>
        <time>2012-09-15T17:02:50Z</time>
      </trkpt>
      <trkpt lat="53.9847383" lon="26.9516815">
        <ele>203.0</ele>
        <time>2012-09-15T17:02:54Z</time>
      </trkpt>
      <trkpt lat="53.9845735" lon="26.9517748">
        <ele>204.0</ele>
        <time>2012-09-15T17:02:59Z</time>
      </trkpt>
      <trkpt lat="53.9842953" lon="26.9519633">
        <ele>204.0</ele>
        <time>2012-09-15T17:03:06Z</time>
      </trkpt>
      <trkpt lat="53.9839582" lon="26.9521422">
        <ele>195.0</ele>
        <time>2012-09-15T17:03:11Z</time>
      </trkpt>
      <trkpt lat="53.9838086" lon="26.9520396">
        <ele>195.0</ele>
        <time>2012-09-15T17:03:16Z</time>
      </trkpt>
      <trkpt lat="53.9838054" lon="26.9517977">
        <ele>193.0</ele>
        <time>2012-09-15T17:03:20Z</time>
      </trkpt>
      <trkpt lat="53.9836842" lon="26.9516804">
        <ele>189.0</ele>
        <time>2012-09-15T17:03:26Z</time>
      </trkpt>
      <trkpt lat="53.9835678" lon="26.9514955">
        <ele>191.0</ele>
        <time>2012-09-15T17:03:32Z</time>
      </trkpt>
      <trkpt lat="53.9834819" lon="26.9509896">
        <ele>194.0</ele>
        <time>2012-09-15T17:03:41Z</time>
      </trkpt>
      <trkpt lat="53.9835653" lon="26.9504946">
        <ele>195.0</ele>
        <time>2012-09-15T17:03:51Z</time>
      </trkpt>
      <trkpt lat="53.9836224" lon="26.950243">
        <ele>192.0</ele>
        <time>2012-09-15T17:03:56Z</time>
      </trkpt>
      <trkpt lat="53.9836296" lon="26.9499692">
        <ele>185.0</ele>
        <time>2012-09-15T17:04:01Z</time>
      </trkpt>
      <trkpt lat="53.9836454" lon="26.9497021">
        <ele>185.0</ele>
        <time>2012-09-15T17:04:06Z</time>
      </trkpt>
      <trkpt lat="53.983679" lon="26.949436">
        <ele>185.0</ele>
        <time>2012-09-15T17:04:12Z</time>
      </trkpt>
      <trkpt lat="53.9836403" lon="26.9491982">
        <ele>185.0</ele>
        <time>2012-09-15T17:04:16Z</time>
      </trkpt>
      <trkpt lat="53.9835327" lon="26.9486472">
        <ele>186.0</ele>
        <time>2012-09-15T17:04:25Z</time>
      </trkpt>
      <trkpt lat="53.9834502" lon="26.9481707">
        <ele>186.0</ele>
        <time>2012-09-15T17:04:34Z</time>
      </trkpt>
      <trkpt lat="53.9833854" lon="26.947939">
        <ele>185.0</ele>
        <time>2012-09-15T17:04:38Z</time>
      </trkpt>
      <trkpt lat="53.9833036" lon="26.9477248">
        <ele>191.0</ele>
        <time>2012-09-15T17:04:43Z</time>
      </trkpt>
      <trkpt lat="53.9832218" lon="26.9475061">
        <ele>188.0</ele>
        <time>2012-09-15T17:04:47Z</time>
      </trkpt>
      <trkpt lat="53.98301" lon="26.9471498">
        <ele>182.0</ele>
        <time>2012-09-15T17:04:54Z</time>
      </trkpt>
      <trkpt lat="53.982851" lon="26.9470352">
        <ele>180.0</ele>
        <time>2012-09-15T17:04:58Z</time>
      </trkpt>
      <trkpt lat="53.9827072" lon="26.9469316">
        <ele>185.0</ele>
        <time>2012-09-15T17:05:03Z</time>
      </trkpt>
      <trkpt lat="53.9825372" lon="26.9465663">
        <ele>185.0</ele>
        <time>2012-09-15T17:05:11Z</time>
      </trkpt>
      <trkpt lat="53.9824898" lon="26.9462867">
        <ele>183.0</ele>
        <time>2012-09-15T17:05:15Z</time>
      </trkpt>
      <trkpt lat="53.9824334" lon="26.9460445">
        <ele>185.0</ele>
        <time>2012-09-15T17:05:19Z</time>
      </trkpt>
      <trkpt lat="53.9822239" lon="26.945709">
        <ele>186.0</ele>
        <time>2012-09-15T17:05:27Z</time>
      </trkpt>
      <trkpt lat="53.9819303" lon="26.9456276">
        <ele>184.0</ele>
        <time>2012-09-15T17:05:36Z</time>
      </trkpt>
      <trkpt lat="53.9816463" lon="26.9454403">
        <ele>181.0</ele>
        <time>2012-09-15T17:05:43Z</time>
      </trkpt>
      <trkpt lat="53.9815147" lon="26.9453156">
        <ele>181.0</ele>
        <time>2012-09-15T17:05:47Z</time>
      </trkpt>
      <trkpt lat="53.9812852" lon="26.9450416">
        <ele>180.0</ele>
        <time>2012-09-15T17:05:55Z</time>
      </trkpt>
      <trkpt lat="53.9811425" lon="26.9446512">
        <ele>183.0</ele>
        <time>2012-09-15T17:06:03Z</time>
      </trkpt>
      <trkpt lat="53.9812152" lon="26.9444439">
        <ele>192.0</ele>
        <time>2012-09-15T17:06:09Z</time>
      </trkpt>
      <trkpt lat="53.9813715" lon="26.944425">
        <ele>194.0</ele>
        <time>2012-09-15T17:06:14Z</time>
      </trkpt>
      <trkpt lat="53.9814595" lon="26.9442343">
        <ele>193.0</ele>
        <time>2012-09-15T17:06:19Z</time>
      </trkpt>
      <trkpt lat="53.9815164" lon="26.9440204">
        <ele>193.0</ele>
        <time>2012-09-15T17:06:25Z</time>
      </trkpt>
      <trkpt lat="53.9816076" lon="26.9438466">
        <ele>193.0</ele>
        <time>2012-09-15T17:06:30Z</time>
      </trkpt>
      <trkpt lat="53.9817102" lon="26.9436541">
        <ele>194.0</ele>
        <time>2012-09-15T17:06:37Z</time>
      </trkpt>
      <trkpt lat="53.9818265" lon="26.9435153">
        <ele>197.0</ele>
        <time>2012-09-15T17:06:42Z</time>
      </trkpt>
      <trkpt lat="53.9819769" lon="26.9435286">
        <ele>195.0</ele>
        <time>2012-09-15T17:06:50Z</time>
      </trkpt>
      <trkpt lat="53.9821171" lon="26.9435073">
        <ele>198.0</ele>
        <time>2012-09-15T17:06:57Z</time>
      </trkpt>
      <trkpt lat="53.9822646" lon="26.9434662">
        <ele>200.0</ele>
        <time>2012-09-15T17:07:02Z</time>
      </trkpt>
      <trkpt lat="53.9825536" lon="26.943422">
        <ele>200.0</ele>
        <time>2012-09-15T17:07:12Z</time>
      </trkpt>
      <trkpt lat="53.9826717" lon="26.9432975">
        <ele>199.0</ele>
        <time>2012-09-15T17:07:16Z</time>
      </trkpt>
      <trkpt lat="53.9829826" lon="26.943074">
        <ele>198.0</ele>
        <time>2012-09-15T17:07:24Z</time>
      </trkpt>
      <trkpt lat="53.9832498" lon="26.9428476">
        <ele>197.0</ele>
        <time>2012-09-15T17:07:32Z</time>
      </trkpt>
      <trkpt lat="53.9833722" lon="26.9426969">
        <ele>199.0</ele>
        <time>2012-09-15T17:07:37Z</time>
      </trkpt>
      <trkpt lat="53.9835147" lon="26.9425813">
        <ele>204.0</ele>
        <time>2012-09-15T17:07:42Z</time>
      </trkpt>
      <trkpt lat="53.9837573" lon="26.9422518">
        <ele>203.0</ele>
        <time>2012-09-15T17:07:48Z</time>
      </trkpt>
      <trkpt lat="53.9838748" lon="26.9420798">
        <ele>205.0</ele>
        <time>2012-09-15T17:07:52Z</time>
      </trkpt>
      <trkpt lat="53.9839789" lon="26.9419316">
        <ele>206.0</ele>
        <time>2012-09-15T17:07:57Z</time>
      </trkpt>
      <trkpt lat="53.9839793" lon="26.9415373">
        <ele>206.0</ele>
        <time>2012-09-15T17:08:07Z</time>
      </trkpt>
      <trkpt lat="53.9839793" lon="26.9415373">
        <time>2012-09-15T17:08:24Z</time>
      </trkpt>
    </trkseg>
    <trkseg>
      <trkpt lat="53.9839793" lon="26.9415373">
        <time>2012-09-15T17:08:29Z</time>
      </trkpt>
      <trkpt lat="53.9838454" lon="26.9416126">
        <ele>205.0</ele>
        <time>2012-09-15T17:08:30Z</time>
      </trkpt>
      <trkpt lat="53.983684" lon="26.9416489">
        <ele>205.0</ele>
        <time>2012-09-15T17:08:36Z</time>
      </trkpt>
      <trkpt lat="53.983285" lon="26.9416782">
        <ele>199.0</ele>
        <time>2012-09-15T17:08:43Z</time>
      </trkpt>
      <trkpt lat="53.9831048" lon="26.9416285">
        <ele>200.0</ele>
        <time>2012-09-15T17:08:48Z</time>
      </trkpt>
      <trkpt lat="53.9827743" lon="26.9414676">
        <ele>198.0</ele>
        <time>2012-09-15T17:08:54Z</time>
      </trkpt>
      <trkpt lat="53.9826117" lon="26.9414092">
        <ele>198.0</ele>
        <time>2012-09-15T17:08:58Z</time>
      </trkpt>
      <trkpt lat="53.9822713" lon="26.941162">
        <ele>200.0</ele>
        <time>2012-09-15T17:09:04Z</time>
      </trkpt>
      <trkpt lat="53.9819158" lon="26.9409771">
        <ele>193.0</ele>
        <time>2012-09-15T17:09:11Z</time>
      </trkpt>
      <trkpt lat="53.9816634" lon="26.9407545">
        <ele>199.0</ele>
        <time>2012-09-15T17:09:17Z</time>
      </trkpt>
      <trkpt lat="53.9813459" lon="26.9404761">
        <ele>195.0</ele>
        <time>2012-09-15T17:09:24Z</time>
      </trkpt>
      <trkpt lat="53.981036" lon="26.9402424">
        <ele>196.0</ele>
        <time>2012-09-15T17:09:30Z</time>
      </trkpt>
      <trkpt lat="53.9807619" lon="26.9400583">
        <ele>193.0</ele>
        <time>2012-09-15T17:09:37Z</time>
      </trkpt>
      <trkpt lat="53.9806154" lon="26.9399705">
        <ele>191.0</ele>
        <time>2012-09-15T17:09:44Z</time>
      </trkpt>
      <trkpt lat="53.9804919" lon="26.939838">
        <ele>187.0</ele>
        <time>2012-09-15T17:09:49Z</time>
      </trkpt>
      <trkpt lat="53.9803631" lon="26.9396897">
        <ele>190.0</ele>
        <time>2012-09-15T17:09:53Z</time>
      </trkpt>
      <trkpt lat="53.9802232" lon="26.9396779">
        <ele>191.0</ele>
        <time>2012-09-15T17:09:58Z</time>
      </trkpt>
      <trkpt lat="53.9800865" lon="26.9397905">
        <ele>187.0</ele>
        <time>2012-09-15T17:10:16Z</time>
      </trkpt>
      <trkpt lat="53.979944" lon="26.9397419">
        <ele>187.0</ele>
        <time>2012-09-15T17:10:22Z</time>
      </trkpt>
      <trkpt lat="53.9798754" lon="26.9395218">
        <ele>185.0</ele>
        <time>2012-09-15T17:10:32Z</time>
      </trkpt>
      <trkpt lat="53.979918" lon="26.9393035">
        <ele>189.0</ele>
        <time>2012-09-15T17:10:51Z</time>
      </trkpt>
      <trkpt lat="53.979918" lon="26.9393035">
        <time>2012-09-15T17:11:13Z</time>
      </trkpt>
    </trkseg>
    <trkseg>
      <trkpt lat="53.979918" lon="26.9393035">
        <time>2012-09-15T17:11:22Z</time>
      </trkpt>
      <trkpt lat="53.9799895" lon="26.9391136">
        <ele>192.0</ele>
        <time>2012-09-15T17:11:22Z</time>
      </trkpt>
      <trkpt lat="53.9799895" lon="26.9391136">
        <time>2012-09-15T17:11:34Z</time>
      </trkpt>
    </trkseg>
    <trkseg>
      <trkpt lat="53.9799895" lon="26.9391136">
        <time>2012-09-15T17:12:37Z</time>
      </trkpt>
      <trkpt lat="53.9800222" lon="26.9391718">
        <ele>204.0</ele>
        <time>2012-09-15T17:12:37Z</time>
      </trkpt>
      <trkpt lat="53.9800222" lon="26.9391718">
        <time>2012-09-15T17:12:49Z</time>
      </trkpt>
    </trkseg>
    <trkseg>
      <trkpt lat="53.9800222" lon="26.9391718">
        <time>2012-09-15T17:12:57Z</time>
      </trkpt>
      <trkpt lat="53.9800328" lon="26.9390876">
        <ele>200.0</ele>
        <time>2012-09-15T17:12:57Z</time>
      </trkpt>
      <trkpt lat="53.9799558" lon="26.9388256">
        <ele>195.0</ele>
        <time>2012-09-15T17:13:05Z</time>
      </trkpt>
      <trkpt lat="53.9798658" lon="26.9386088">
        <ele>193.0</ele>
        <time>2012-09-15T17:13:09Z</time>
      </trkpt>
      <trkpt lat="53.9797756" lon="26.9384117">
        <ele>190.0</ele>
        <time>2012-09-15T17:13:14Z</time>
      </trkpt>
      <trkpt lat="53.9796381" lon="26.9382777">
        <ele>189.0</ele>
        <time>2012-09-15T17:13:19Z</time>
      </trkpt>
      <trkpt lat="53.9794736" lon="26.9383361">
        <ele>191.0</ele>
        <time>2012-09-15T17:13:24Z</time>
      </trkpt>
      <trkpt lat="53.9793316" lon="26.9384149">
        <ele>189.0</ele>
        <time>2012-09-15T17:13:29Z</time>
      </trkpt>
      <trkpt lat="53.9789856" lon="26.9384973">
        <ele>189.0</ele>
        <time>2012-09-15T17:13:34Z</time>
      </trkpt>
      <trkpt lat="53.978735" lon="26.938257">
        <ele>195.0</ele>
        <time>2012-09-15T17:13:41Z</time>
      </trkpt>
      <trkpt lat="53.9784376" lon="26.9382413">
        <ele>193.0</ele>
        <time>2012-09-15T17:13:46Z</time>
      </trkpt>
      <trkpt lat="53.9782073" lon="26.9384932">
        <ele>199.0</ele>
        <time>2012-09-15T17:13:54Z</time>
      </trkpt>
      <trkpt lat="53.9779049" lon="26.9387518">
        <ele>196.0</ele>
        <time>2012-09-15T17:14:02Z</time>
      </trkpt>
      <trkpt lat="53.9775947" lon="26.9388142">
        <ele>194.0</ele>
        <time>2012-09-15T17:14:09Z</time>
      </trkpt>
      <trkpt lat="53.9773083" lon="26.9390216">
        <ele>192.0</ele>
        <time>2012-09-15T17:14:14Z</time>
      </trkpt>
      <trkpt lat="53.977152" lon="26.9390602">
        <ele>191.0</ele>
        <time>2012-09-15T17:14:18Z</time>
      </trkpt>
      <trkpt lat="53.977016" lon="26.9390883">
        <ele>194.0</ele>
        <time>2012-09-15T17:14:23Z</time>
      </trkpt>
      <trkpt lat="53.9767237" lon="26.9392902">
        <ele>198.0</ele>
        <time>2012-09-15T17:14:29Z</time>
      </trkpt>
      <trkpt lat="53.9764263" lon="26.9392993">
        <ele>196.0</ele>
        <time>2012-09-15T17:14:37Z</time>
      </trkpt>
      <trkpt lat="53.9763106" lon="26.9391702">
        <ele>196.0</ele>
        <time>2012-09-15T17:14:41Z</time>
      </trkpt>
      <trkpt lat="53.976153" lon="26.9391323">
        <ele>196.0</ele>
        <time>2012-09-15T17:14:48Z</time>
      </trkpt>
      <trkpt lat="53.9759921" lon="26.9391986">
        <ele>195.0</ele>
        <time>2012-09-15T17:14:53Z</time>
      </trkpt>
      <trkpt lat="53.9757152" lon="26.9393448">
        <ele>202.0</ele>
        <time>2012-09-15T17:14:59Z</time>
      </trkpt>
      <trkpt lat="53.9754519" lon="26.9395088">
        <ele>202.0</ele>
        <time>2012-09-15T17:15:09Z</time>
      </trkpt>
      <trkpt lat="53.9753213" lon="26.9394097">
        <ele>204.0</ele>
        <time>2012-09-15T17:15:23Z</time>
      </trkpt>
      <trkpt lat="53.975184" lon="26.9393838">
        <ele>207.0</ele>
        <time>2012-09-15T17:15:31Z</time>
      </trkpt>
      <trkpt lat="53.9750252" lon="26.9393136">
        <ele>208.0</ele>
        <time>2012-09-15T17:15:38Z</time>
      </trkpt>
      <trkpt lat="53.9748768" lon="26.9391941">
        <ele>209.0</ele>
        <time>2012-09-15T17:15:42Z</time>
      </trkpt>
      <trkpt lat="53.9747914" lon="26.9390142">
        <ele>208.0</ele>
        <time>2012-09-15T17:15:47Z</time>
      </trkpt>
      <trkpt lat="53.9746442" lon="26.9391134">
        <ele>204.0</ele>
        <time>2012-09-15T17:15:53Z</time>
      </trkpt>
      <trkpt lat="53.9745147" lon="26.9392155">
        <ele>204.0</ele>
        <time>2012-09-15T17:15:58Z</time>
      </trkpt>
      <trkpt lat="53.9745147" lon="26.9392155">
        <time>2012-09-15T17:16:17Z</time>
      </trkpt>
    </trkseg>
    <trkseg>
      <trkpt lat="53.9745147" lon="26.9392155">
        <time>2012-09-15T17:16:20Z</time>
      </trkpt>
      <trkpt lat="53.9744543" lon="26.9391975">
        <ele>209.0</ele>
        <time>2012-09-15T17:16:20Z</time>
      </trkpt>
      <trkpt lat="53.9744543" lon="26.9391975">
        <time>2012-09-15T17:16:31Z</time>
      </trkpt>
    </trkseg>
    <trkseg>
      <trkpt lat="53.9744543" lon="26.9391975">
        <time>2012-09-15T17:16:37Z</time>
      </trkpt>
      <trkpt lat="53.9744008" lon="26.9391701">
        <ele>214.0</ele>
        <time>2012-09-15T17:16:37Z</time>
      </trkpt>
      <trkpt lat="53.9742638" lon="26.93917">
        <ele>215.0</ele>
        <time>2012-09-15T17:16:51Z</time>
      </trkpt>
      <trkpt lat="53.9740889" lon="26.9391959">
        <ele>211.0</ele>
        <time>2012-09-15T17:16:57Z</time>
      </trkpt>
      <trkpt lat="53.9737771" lon="26.9392409">
        <ele>212.0</ele>
        <time>2012-09-15T17:17:05Z</time>
      </trkpt>
      <trkpt lat="53.9734787" lon="26.9393532">
        <ele>211.0</ele>
        <time>2012-09-15T17:17:14Z</time>
      </trkpt>
      <trkpt lat="53.9731864" lon="26.9394065">
        <ele>208.0</ele>
        <time>2012-09-15T17:17:20Z</time>
      </trkpt>
      <trkpt lat="53.9728959" lon="26.939417">
        <ele>205.0</ele>
        <time>2012-09-15T17:17:25Z</time>
      </trkpt>
      <trkpt lat="53.9725894" lon="26.9393851">
        <ele>203.0</ele>
        <time>2012-09-15T17:17:31Z</time>
      </trkpt>
      <trkpt lat="53.9724142" lon="26.9393308">
        <ele>203.0</ele>
        <time>2012-09-15T17:17:35Z</time>
      </trkpt>
      <trkpt lat="53.9722397" lon="26.9393659">
        <ele>202.0</ele>
        <time>2012-09-15T17:17:39Z</time>
      </trkpt>
      <trkpt lat="53.9719661" lon="26.939447">
        <ele>203.0</ele>
        <time>2012-09-15T17:17:45Z</time>
      </trkpt>
      <trkpt lat="53.97148" lon="26.9395778">
        <ele>210.0</ele>
        <time>2012-09-15T17:17:52Z</time>
      </trkpt>
      <trkpt lat="53.9712943" lon="26.9397002">
        <ele>213.0</ele>
        <time>2012-09-15T17:17:57Z</time>
      </trkpt>
      <trkpt lat="53.9709726" lon="26.9397327">
        <ele>215.0</ele>
        <time>2012-09-15T17:18:04Z</time>
      </trkpt>
      <trkpt lat="53.9706548" lon="26.9398908">
        <ele>207.0</ele>
        <time>2012-09-15T17:18:10Z</time>
      </trkpt>
      <trkpt lat="53.9704826" lon="26.9398956">
        <ele>207.0</ele>
        <time>2012-09-15T17:18:15Z</time>
      </trkpt>
      <trkpt lat="53.9701761" lon="26.9399184">
        <ele>202.0</ele>
        <time>2012-09-15T17:18:20Z</time>
      </trkpt>
      <trkpt lat="53.969879" lon="26.9399139">
        <ele>203.0</ele>
        <time>2012-09-15T17:18:25Z</time>
      </trkpt>
      <trkpt lat="53.9696945" lon="26.9400155">
        <ele>205.0</ele>
        <time>2012-09-15T17:18:29Z</time>
      </trkpt>
      <trkpt lat="53.9693929" lon="26.9400907">
        <ele>202.0</ele>
        <time>2012-09-15T17:18:35Z</time>
      </trkpt>
      <trkpt lat="53.9690772" lon="26.9401651">
        <ele>204.0</ele>
        <time>2012-09-15T17:18:42Z</time>
      </trkpt>
      <trkpt lat="53.9687842" lon="26.940192">
        <ele>207.0</ele>
        <time>2012-09-15T17:18:48Z</time>
      </trkpt>
      <trkpt lat="53.9684913" lon="26.9400973">
        <ele>207.0</ele>
        <time>2012-09-15T17:18:54Z</time>
      </trkpt>
      <trkpt lat="53.9681953" lon="26.9401503">
        <ele>208.0</ele>
        <time>2012-09-15T17:19:02Z</time>
      </trkpt>
      <trkpt lat="53.9680435" lon="26.9401807">
        <ele>208.0</ele>
        <time>2012-09-15T17:19:06Z</time>
      </trkpt>
      <trkpt lat="53.967757" lon="26.9402836">
        <ele>217.0</ele>
        <time>2012-09-15T17:19:14Z</time>
      </trkpt>
      <trkpt lat="53.9674462" lon="26.9401876">
        <ele>218.0</ele>
        <time>2012-09-15T17:19:22Z</time>
      </trkpt>
      <trkpt lat="53.9672917" lon="26.9400856">
        <ele>220.0</ele>
        <time>2012-09-15T17:19:27Z</time>
      </trkpt>
      <trkpt lat="53.9671612" lon="26.9400238">
        <ele>220.0</ele>
        <time>2012-09-15T17:19:32Z</time>
      </trkpt>
      <trkpt lat="53.9670186" lon="26.9399224">
        <ele>222.0</ele>
        <time>2012-09-15T17:19:36Z</time>
      </trkpt>
      <trkpt lat="53.9668867" lon="26.9398563">
        <ele>222.0</ele>
        <time>2012-09-15T17:19:41Z</time>
      </trkpt>
      <trkpt lat="53.9666053" lon="26.9396446">
        <ele>220.0</ele>
        <time>2012-09-15T17:19:46Z</time>
      </trkpt>
      <trkpt lat="53.9664392" lon="26.9395484">
        <ele>219.0</ele>
        <time>2012-09-15T17:19:51Z</time>
      </trkpt>
      <trkpt lat="53.9661125" lon="26.939377">
        <ele>221.0</ele>
        <time>2012-09-15T17:19:57Z</time>
      </trkpt>
      <trkpt lat="53.9658064" lon="26.939294">
        <ele>220.0</ele>
        <time>2012-09-15T17:20:03Z</time>
      </trkpt>
      <trkpt lat="53.9654827" lon="26.9391512">
        <ele>226.0</ele>
        <time>2012-09-15T17:20:09Z</time>
      </trkpt>
      <trkpt lat="53.965223" lon="26.939013">
        <ele>226.0</ele>
        <time>2012-09-15T17:20:15Z</time>
      </trkpt>
      <trkpt lat="53.964897" lon="26.9388496">
        <ele>228.0</ele>
        <time>2012-09-15T17:20:23Z</time>
      </trkpt>
      <trkpt lat="53.9646039" lon="26.938663">
        <ele>227.0</ele>
        <time>2012-09-15T17:20:32Z</time>
      </trkpt>
      <trkpt lat="53.9644578" lon="26.9386418">
        <ele>226.0</ele>
        <time>2012-09-15T17:20:36Z</time>
      </trkpt>
      <trkpt lat="53.9643208" lon="26.9385701">
        <ele>224.0</ele>
        <time>2012-09-15T17:20:42Z</time>
      </trkpt>
      <trkpt lat="53.9641707" lon="26.9384669">
        <ele>221.0</ele>
        <time>2012-09-15T17:20:47Z</time>
      </trkpt>
      <trkpt lat="53.9638832" lon="26.9383068">
        <ele>220.0</ele>
        <time>2012-09-15T17:20:56Z</time>
      </trkpt>
      <trkpt lat="53.9637199" lon="26.9382661">
        <ele>220.0</ele>
        <time>2012-09-15T17:21:00Z</time>
      </trkpt>
      <trkpt lat="53.9634474" lon="26.9381653">
        <ele>220.0</ele>
        <time>2012-09-15T17:21:05Z</time>
      </trkpt>
      <trkpt lat="53.963173" lon="26.9379586">
        <ele>218.0</ele>
        <time>2012-09-15T17:21:13Z</time>
      </trkpt>
      <trkpt lat="53.9628883" lon="26.9377654">
        <ele>216.0</ele>
        <time>2012-09-15T17:21:18Z</time>
      </trkpt>
      <trkpt lat="53.9627086" lon="26.9376872">
        <ele>216.0</ele>
        <time>2012-09-15T17:21:23Z</time>
      </trkpt>
      <trkpt lat="53.9624376" lon="26.9375549">
        <ele>221.0</ele>
        <time>2012-09-15T17:21:29Z</time>
      </trkpt>
      <trkpt lat="53.9621156" lon="26.9374065">
        <ele>223.0</ele>
        <time>2012-09-15T17:21:35Z</time>
      </trkpt>
      <trkpt lat="53.9618029" lon="26.9372546">
        <ele>226.0</ele>
        <time>2012-09-15T17:21:43Z</time>
      </trkpt>
      <trkpt lat="53.9614791" lon="26.9371437">
        <ele>224.0</ele>
        <time>2012-09-15T17:21:51Z</time>
      </trkpt>
      <trkpt lat="53.9611477" lon="26.9370367">
        <ele>228.0</ele>
        <time>2012-09-15T17:21:57Z</time>
      </trkpt>
      <trkpt lat="53.9608105" lon="26.9369499">
        <ele>227.0</ele>
        <time>2012-09-15T17:22:04Z</time>
      </trkpt>
      <trkpt lat="53.9604994" lon="26.936849">
        <ele>225.0</ele>
        <time>2012-09-15T17:22:10Z</time>
      </trkpt>
      <trkpt lat="53.9603357" lon="26.9367427">
        <ele>226.0</ele>
        <time>2012-09-15T17:22:14Z</time>
      </trkpt>
      <trkpt lat="53.9600318" lon="26.9365259">
        <ele>227.0</ele>
        <time>2012-09-15T17:22:21Z</time>
      </trkpt>
      <trkpt lat="53.9597592" lon="26.9363008">
        <ele>226.0</ele>
        <time>2012-09-15T17:22:27Z</time>
      </trkpt>
      <trkpt lat="53.9594986" lon="26.9359825">
        <ele>225.0</ele>
        <time>2012-09-15T17:22:35Z</time>
      </trkpt>
      <trkpt lat="53.9592358" lon="26.9357011">
        <ele>221.0</ele>
        <time>2012-09-15T17:22:39Z</time>
      </trkpt>
      <trkpt lat="53.9589563" lon="26.9355176">
        <ele>226.0</ele>
        <time>2012-09-15T17:22:49Z</time>
      </trkpt>
      <trkpt lat="53.9586951" lon="26.9352659">
        <ele>226.0</ele>
        <time>2012-09-15T17:22:57Z</time>
      </trkpt>
      <trkpt lat="53.9585445" lon="26.9352657">
        <ele>225.0</ele>
        <time>2012-09-15T17:23:02Z</time>
      </trkpt>
      <trkpt lat="53.9583687" lon="26.9356954">
        <ele>223.0</ele>
        <time>2012-09-15T17:23:06Z</time>
      </trkpt>
      <trkpt lat="53.95812" lon="26.9361476">
        <ele>223.0</ele>
        <time>2012-09-15T17:23:13Z</time>
      </trkpt>
      <trkpt lat="53.9578898" lon="26.9365535">
        <ele>223.0</ele>
        <time>2012-09-15T17:23:20Z</time>
      </trkpt>
      <trkpt lat="53.9577389" lon="26.9370052">
        <ele>224.0</ele>
        <time>2012-09-15T17:23:27Z</time>
      </trkpt>
      <trkpt lat="53.9577491" lon="26.937254">
        <ele>223.0</ele>
        <time>2012-09-15T17:23:31Z</time>
      </trkpt>
      <trkpt lat="53.9577638" lon="26.93749">
        <ele>223.0</ele>
        <time>2012-09-15T17:23:36Z</time>
      </trkpt>
      <trkpt lat="53.9578091" lon="26.9377582">
        <ele>224.0</ele>
        <time>2012-09-15T17:23:42Z</time>
      </trkpt>
      <trkpt lat="53.957789" lon="26.9384231">
        <ele>226.0</ele>
        <time>2012-09-15T17:23:49Z</time>
      </trkpt>
      <trkpt lat="53.957826" lon="26.9389554">
        <ele>227.0</ele>
        <time>2012-09-15T17:23:56Z</time>
      </trkpt>
      <trkpt lat="53.957934" lon="26.9394236">
        <ele>230.0</ele>
        <time>2012-09-15T17:24:04Z</time>
      </trkpt>
      <trkpt lat="53.9579521" lon="26.939683">
        <ele>228.0</ele>
        <time>2012-09-15T17:24:09Z</time>
      </trkpt>
      <trkpt lat="53.9579525" lon="26.9399504">
        <ele>231.0</ele>
        <time>2012-09-15T17:24:14Z</time>
      </trkpt>
      <trkpt lat="53.9580192" lon="26.9402006">
        <ele>230.0</ele>
        <time>2012-09-15T17:24:19Z</time>
      </trkpt>
      <trkpt lat="53.9581577" lon="26.9403441">
        <ele>229.0</ele>
        <time>2012-09-15T17:24:24Z</time>
      </trkpt>
      <trkpt lat="53.9582969" lon="26.9404782">
        <ele>229.0</ele>
        <time>2012-09-15T17:24:29Z</time>
      </trkpt>
      <trkpt lat="53.9584013" lon="26.9406585">
        <ele>230.0</ele>
        <time>2012-09-15T17:24:34Z</time>
      </trkpt>
      <trkpt lat="53.9585547" lon="26.9410969">
        <ele>229.0</ele>
        <time>2012-09-15T17:24:40Z</time>
      </trkpt>
      <trkpt lat="53.9586152" lon="26.9413467">
        <ele>224.0</ele>
        <time>2012-09-15T17:24:46Z</time>
      </trkpt>
      <trkpt lat="53.958686" lon="26.941595">
        <ele>223.0</ele>
        <time>2012-09-15T17:24:51Z</time>
      </trkpt>
      <trkpt lat="53.9588193" lon="26.9420595">
        <ele>222.0</ele>
        <time>2012-09-15T17:24:59Z</time>
      </trkpt>
      <trkpt lat="53.9588482" lon="26.9423068">
        <ele>226.0</ele>
        <time>2012-09-15T17:25:03Z</time>
      </trkpt>
      <trkpt lat="53.9589327" lon="26.9427961">
        <ele>229.0</ele>
        <time>2012-09-15T17:25:10Z</time>
      </trkpt>
      <trkpt lat="53.9589944" lon="26.943054">
        <ele>229.0</ele>
        <time>2012-09-15T17:25:14Z</time>
      </trkpt>
      <trkpt lat="53.9590413" lon="26.9433223">
        <ele>230.0</ele>
        <time>2012-09-15T17:25:18Z</time>
      </trkpt>
      <trkpt lat="53.9590741" lon="26.9435472">
        <ele>228.0</ele>
        <time>2012-09-15T17:25:23Z</time>
      </trkpt>
      <trkpt lat="53.9591096" lon="26.9437899">
        <ele>231.0</ele>
        <time>2012-09-15T17:25:29Z</time>
      </trkpt>
      <trkpt lat="53.9591642" lon="26.9440045">
        <ele>236.0</ele>
        <time>2012-09-15T17:25:34Z</time>
      </trkpt>
      <trkpt lat="53.9592262" lon="26.9442501">
        <ele>237.0</ele>
        <time>2012-09-15T17:25:39Z</time>
      </trkpt>
      <trkpt lat="53.9592811" lon="26.9444825">
        <ele>241.0</ele>
        <time>2012-09-15T17:25:47Z</time>
      </trkpt>
      <trkpt lat="53.9593198" lon="26.9447184">
        <ele>244.0</ele>
        <time>2012-09-15T17:25:54Z</time>
      </trkpt>
      <trkpt lat="53.959344" lon="26.9449672">
        <ele>247.0</ele>
        <time>2012-09-15T17:26:02Z</time>
      </trkpt>
      <trkpt lat="53.9594007" lon="26.9452013">
        <ele>247.0</ele>
        <time>2012-09-15T17:26:09Z</time>
      </trkpt>
      <trkpt lat="53.9594508" lon="26.945432">
        <ele>249.0</ele>
        <time>2012-09-15T17:26:18Z</time>
      </trkpt>
      <trkpt lat="53.9595187" lon="26.9456573">
        <ele>245.0</ele>
        <time>2012-09-15T17:26:26Z</time>
      </trkpt>
      <trkpt lat="53.9595737" lon="26.9458737">
        <ele>243.0</ele>
        <time>2012-09-15T17:26:30Z</time>
      </trkpt>
      <trkpt lat="53.959649" lon="26.946118">
        <ele>242.0</ele>
        <time>2012-09-15T17:26:34Z</time>
      </trkpt>
      <trkpt lat="53.9598213" lon="26.9466198">
        <ele>242.0</ele>
        <time>2012-09-15T17:26:39Z</time>
      </trkpt>
      <trkpt lat="53.9599774" lon="26.9471533">
        <ele>239.0</ele>
        <time>2012-09-15T17:26:45Z</time>
      </trkpt>
      <trkpt lat="53.9602381" lon="26.9479577">
        <ele>241.0</ele>
        <time>2012-09-15T17:26:51Z</time>
      </trkpt>
      <trkpt lat="53.9604269" lon="26.94848">
        <ele>241.0</ele>
        <time>2012-09-15T17:26:55Z</time>
      </trkpt>
      <trkpt lat="53.9605883" lon="26.9488874">
        <ele>242.0</ele>
        <time>2012-09-15T17:27:00Z</time>
      </trkpt>
      <trkpt lat="53.9607395" lon="26.9493826">
        <ele>240.0</ele>
        <time>2012-09-15T17:27:05Z</time>
      </trkpt>
      <trkpt lat="53.9609048" lon="26.949943">
        <ele>240.0</ele>
        <time>2012-09-15T17:27:10Z</time>
      </trkpt>
      <trkpt lat="53.9609048" lon="26.949943">
        <time>2012-09-15T17:27:27Z</time>
      </trkpt>
    </trkseg>
    <trkseg>
      <trkpt lat="53.9609048" lon="26.949943">
        <time>2012-09-15T17:28:02Z</time>
      </trkpt>
      <trkpt lat="53.960954" lon="26.9503318">
        <ele>227.0</ele>
        <time>2012-09-15T17:28:02Z</time>
      </trkpt>
      <trkpt lat="53.9607607" lon="26.9503701">
        <ele>225.0</ele>
        <time>2012-09-15T17:28:07Z</time>
      </trkpt>
      <trkpt lat="53.9604731" lon="26.9503513">
        <ele>221.0</ele>
        <time>2012-09-15T17:28:18Z</time>
      </trkpt>
      <trkpt lat="53.9603356" lon="26.9503795">
        <ele>224.0</ele>
        <time>2012-09-15T17:28:24Z</time>
      </trkpt>
      <trkpt lat="53.9601744" lon="26.9504194">
        <ele>220.0</ele>
        <time>2012-09-15T17:28:29Z</time>
      </trkpt>
      <trkpt lat="53.9600283" lon="26.9504771">
        <ele>219.0</ele>
        <time>2012-09-15T17:28:33Z</time>
      </trkpt>
      <trkpt lat="53.9598931" lon="26.9504901">
        <ele>219.0</ele>
        <time>2012-09-15T17:28:39Z</time>
      </trkpt>
      <trkpt lat="53.9597563" lon="26.9505629">
        <ele>219.0</ele>
        <time>2012-09-15T17:28:44Z</time>
      </trkpt>
      <trkpt lat="53.9595186" lon="26.950812">
        <ele>219.0</ele>
        <time>2012-09-15T17:28:51Z</time>
      </trkpt>
      <trkpt lat="53.9594163" lon="26.9510033">
        <ele>223.0</ele>
        <time>2012-09-15T17:28:57Z</time>
      </trkpt>
      <trkpt lat="53.9593" lon="26.9511754">
        <ele>224.0</ele>
        <time>2012-09-15T17:29:01Z</time>
      </trkpt>
      <trkpt lat="53.9590163" lon="26.9513245">
        <ele>222.0</ele>
        <time>2012-09-15T17:29:09Z</time>
      </trkpt>
      <trkpt lat="53.9587061" lon="26.9514642">
        <ele>222.0</ele>
        <time>2012-09-15T17:29:17Z</time>
      </trkpt>
      <trkpt lat="53.9585491" lon="26.951594">
        <ele>224.0</ele>
        <time>2012-09-15T17:29:21Z</time>
      </trkpt>
      <trkpt lat="53.9582485" lon="26.9517609">
        <ele>228.0</ele>
        <time>2012-09-15T17:29:30Z</time>
      </trkpt>
      <trkpt lat="53.9582279" lon="26.9519995">
        <ele>226.0</ele>
        <time>2012-09-15T17:29:41Z</time>
      </trkpt>
      <trkpt lat="53.9583691" lon="26.9521694">
        <ele>231.0</ele>
        <time>2012-09-15T17:29:45Z</time>
      </trkpt>
      <trkpt lat="53.9587366" lon="26.9520966">
        <ele>228.0</ele>
        <time>2012-09-15T17:29:52Z</time>
      </trkpt>
      <trkpt lat="53.9590462" lon="26.9518672">
        <ele>223.0</ele>
        <time>2012-09-15T17:29:59Z</time>
      </trkpt>
      <trkpt lat="53.9592253" lon="26.9517867">
        <ele>222.0</ele>
        <time>2012-09-15T17:30:03Z</time>
      </trkpt>
      <trkpt lat="53.9595032" lon="26.9516655">
        <ele>223.0</ele>
        <time>2012-09-15T17:30:10Z</time>
      </trkpt>
      <trkpt lat="53.9597688" lon="26.9518503">
        <ele>223.0</ele>
        <time>2012-09-15T17:30:16Z</time>
      </trkpt>
      <trkpt lat="53.9599668" lon="26.9521692">
        <ele>222.0</ele>
        <time>2012-09-15T17:30:23Z</time>
      </trkpt>
      <trkpt lat="53.9601401" lon="26.9521371">
        <ele>223.0</ele>
        <time>2012-09-15T17:30:28Z</time>
      </trkpt>
      <trkpt lat="53.9604494" lon="26.9520468">
        <ele>223.0</ele>
        <time>2012-09-15T17:30:35Z</time>
      </trkpt>
      <trkpt lat="53.9606174" lon="26.9519837">
        <ele>222.0</ele>
        <time>2012-09-15T17:30:39Z</time>
      </trkpt>
      <trkpt lat="53.9607568" lon="26.9518786">
        <ele>221.0</ele>
        <time>2012-09-15T17:30:44Z</time>
      </trkpt>
      <trkpt lat="53.9610674" lon="26.9517706">
        <ele>220.0</ele>
        <time>2012-09-15T17:30:50Z</time>
      </trkpt>
      <trkpt lat="53.9613576" lon="26.95156">
        <ele>221.0</ele>
        <time>2012-09-15T17:30:55Z</time>
      </trkpt>
      <trkpt lat="53.9616911" lon="26.9514347">
        <ele>219.0</ele>
        <time>2012-09-15T17:31:01Z</time>
      </trkpt>
      <trkpt lat="53.9620288" lon="26.9513978">
        <ele>218.0</ele>
        <time>2012-09-15T17:31:06Z</time>
      </trkpt>
      <trkpt lat="53.9623588" lon="26.9512486">
        <ele>214.0</ele>
        <time>2012-09-15T17:31:12Z</time>
      </trkpt>
      <trkpt lat="53.962688" lon="26.9511614">
        <ele>219.0</ele>
        <time>2012-09-15T17:31:18Z</time>
      </trkpt>
      <trkpt lat="53.9630059" lon="26.9510456">
        <ele>220.0</ele>
        <time>2012-09-15T17:31:23Z</time>
      </trkpt>
      <trkpt lat="53.9633525" lon="26.9511195">
        <ele>224.0</ele>
        <time>2012-09-15T17:31:30Z</time>
      </trkpt>
      <trkpt lat="53.9635468" lon="26.9514897">
        <ele>224.0</ele>
        <time>2012-09-15T17:31:37Z</time>
      </trkpt>
      <trkpt lat="53.9637866" lon="26.951719">
        <ele>225.0</ele>
        <time>2012-09-15T17:31:43Z</time>
      </trkpt>
      <trkpt lat="53.963895" lon="26.9518715">
        <ele>226.0</ele>
        <time>2012-09-15T17:31:48Z</time>
      </trkpt>
      <trkpt lat="53.9639391" lon="26.9520965">
        <ele>225.0</ele>
        <time>2012-09-15T17:31:54Z</time>
      </trkpt>
      <trkpt lat="53.9639542" lon="26.9523595">
        <ele>229.0</ele>
        <time>2012-09-15T17:31:59Z</time>
      </trkpt>
      <trkpt lat="53.963983" lon="26.952593">
        <ele>231.0</ele>
        <time>2012-09-15T17:32:04Z</time>
      </trkpt>
      <trkpt lat="53.9640457" lon="26.9530643">
        <ele>233.0</ele>
        <time>2012-09-15T17:32:11Z</time>
      </trkpt>
      <trkpt lat="53.9640539" lon="26.9532948">
        <ele>234.0</ele>
        <time>2012-09-15T17:32:16Z</time>
      </trkpt>
      <trkpt lat="53.9641029" lon="26.9537741">
        <ele>236.0</ele>
        <time>2012-09-15T17:32:24Z</time>
      </trkpt>
      <trkpt lat="53.964145" lon="26.9542843">
        <ele>236.0</ele>
        <time>2012-09-15T17:32:32Z</time>
      </trkpt>
      <trkpt lat="53.9641896" lon="26.9547918">
        <ele>234.0</ele>
        <time>2012-09-15T17:32:39Z</time>
      </trkpt>
      <trkpt lat="53.9642312" lon="26.9552734">
        <ele>236.0</ele>
        <time>2012-09-15T17:32:44Z</time>
      </trkpt>
      <trkpt lat="53.964319" lon="26.9558852">
        <ele>237.0</ele>
        <time>2012-09-15T17:32:50Z</time>
      </trkpt>
      <trkpt lat="53.964372" lon="26.9565499">
        <ele>237.0</ele>
        <time>2012-09-15T17:32:56Z</time>
      </trkpt>
      <trkpt lat="53.9644562" lon="26.9571739">
        <ele>242.0</ele>
        <time>2012-09-15T17:33:01Z</time>
      </trkpt>
      <trkpt lat="53.964401" lon="26.957683">
        <ele>247.0</ele>
        <time>2012-09-15T17:33:11Z</time>
      </trkpt>
      <trkpt lat="53.9643624" lon="26.9579182">
        <ele>247.0</ele>
        <time>2012-09-15T17:33:16Z</time>
      </trkpt>
      <trkpt lat="53.9642379" lon="26.9584178">
        <ele>246.0</ele>
        <time>2012-09-15T17:33:22Z</time>
      </trkpt>
      <trkpt lat="53.9641091" lon="26.9589872">
        <ele>246.0</ele>
        <time>2012-09-15T17:33:27Z</time>
      </trkpt>
      <trkpt lat="53.9640397" lon="26.9595494">
        <ele>246.0</ele>
        <time>2012-09-15T17:33:33Z</time>
      </trkpt>
      <trkpt lat="53.9639942" lon="26.9601151">
        <ele>247.0</ele>
        <time>2012-09-15T17:33:39Z</time>
      </trkpt>
      <trkpt lat="53.9639735" lon="26.9603631">
        <ele>248.0</ele>
        <time>2012-09-15T17:33:44Z</time>
      </trkpt>
      <trkpt lat="53.963879" lon="26.9608806">
        <ele>247.0</ele>
        <time>2012-09-15T17:33:49Z</time>
      </trkpt>
      <trkpt lat="53.9638202" lon="26.9611584">
        <ele>246.0</ele>
        <time>2012-09-15T17:33:54Z</time>
      </trkpt>
      <trkpt lat="53.9637375" lon="26.961985">
        <ele>247.0</ele>
        <time>2012-09-15T17:34:00Z</time>
      </trkpt>
      <trkpt lat="53.9635829" lon="26.9627959">
        <ele>250.0</ele>
        <time>2012-09-15T17:34:07Z</time>
      </trkpt>
      <trkpt lat="53.9634901" lon="26.9634148">
        <ele>251.0</ele>
        <time>2012-09-15T17:34:13Z</time>
      </trkpt>
      <trkpt lat="53.9636467" lon="26.9634577">
        <ele>239.0</ele>
        <time>2012-09-15T17:34:29Z</time>
      </trkpt>
      <trkpt lat="53.9637667" lon="26.9632408">
        <ele>235.0</ele>
        <time>2012-09-15T17:34:35Z</time>
      </trkpt>
      <trkpt lat="53.9640088" lon="26.963017">
        <ele>236.0</ele>
        <time>2012-09-15T17:34:45Z</time>
      </trkpt>
      <trkpt lat="53.9641535" lon="26.9630242">
        <ele>231.0</ele>
        <time>2012-09-15T17:34:51Z</time>
      </trkpt>
      <trkpt lat="53.9644878" lon="26.9629298">
        <ele>233.0</ele>
        <time>2012-09-15T17:34:57Z</time>
      </trkpt>
      <trkpt lat="53.9647878" lon="26.962761">
        <ele>230.0</ele>
        <time>2012-09-15T17:35:02Z</time>
      </trkpt>
      <trkpt lat="53.9650747" lon="26.9624517">
        <ele>231.0</ele>
        <time>2012-09-15T17:35:06Z</time>
      </trkpt>
      <trkpt lat="53.9654032" lon="26.9623255">
        <ele>231.0</ele>
        <time>2012-09-15T17:35:11Z</time>
      </trkpt>
      <trkpt lat="53.9657645" lon="26.9622882">
        <ele>233.0</ele>
        <time>2012-09-15T17:35:19Z</time>
      </trkpt>
      <trkpt lat="53.9661397" lon="26.9623368">
        <ele>233.0</ele>
        <time>2012-09-15T17:35:26Z</time>
      </trkpt>
      <trkpt lat="53.9664387" lon="26.9625342">
        <ele>228.0</ele>
        <time>2012-09-15T17:35:31Z</time>
      </trkpt>
      <trkpt lat="53.9667208" lon="26.9626671">
        <ele>224.0</ele>
        <time>2012-09-15T17:35:36Z</time>
      </trkpt>
      <trkpt lat="53.9670435" lon="26.9628508">
        <ele>224.0</ele>
        <time>2012-09-15T17:35:41Z</time>
      </trkpt>
      <trkpt lat="53.9673865" lon="26.9628632">
        <ele>227.0</ele>
        <time>2012-09-15T17:35:47Z</time>
      </trkpt>
      <trkpt lat="53.9677765" lon="26.9628221">
        <ele>228.0</ele>
        <time>2012-09-15T17:35:52Z</time>
      </trkpt>
      <trkpt lat="53.9682738" lon="26.9628169">
        <ele>228.0</ele>
        <time>2012-09-15T17:35:58Z</time>
      </trkpt>
      <trkpt lat="53.9685837" lon="26.9628902">
        <ele>228.0</ele>
        <time>2012-09-15T17:36:03Z</time>
      </trkpt>
      <trkpt lat="53.9687585" lon="26.9629846">
        <ele>229.0</ele>
        <time>2012-09-15T17:36:07Z</time>
      </trkpt>
      <trkpt lat="53.9691707" lon="26.962984">
        <ele>232.0</ele>
        <time>2012-09-15T17:36:13Z</time>
      </trkpt>
      <trkpt lat="53.9694724" lon="26.9631892">
        <ele>229.0</ele>
        <time>2012-09-15T17:36:19Z</time>
      </trkpt>
      <trkpt lat="53.9697456" lon="26.9633191">
        <ele>229.0</ele>
        <time>2012-09-15T17:36:24Z</time>
      </trkpt>
      <trkpt lat="53.9700755" lon="26.9634913">
        <ele>229.0</ele>
        <time>2012-09-15T17:36:31Z</time>
      </trkpt>
      <trkpt lat="53.9705452" lon="26.9635908">
        <ele>232.0</ele>
        <time>2012-09-15T17:36:37Z</time>
      </trkpt>
      <trkpt lat="53.9710028" lon="26.9637977">
        <ele>233.0</ele>
        <time>2012-09-15T17:36:42Z</time>
      </trkpt>
      <trkpt lat="53.97132" lon="26.9638804">
        <ele>235.0</ele>
        <time>2012-09-15T17:36:46Z</time>
      </trkpt>
      <trkpt lat="53.9716321" lon="26.9641128">
        <ele>230.0</ele>
        <time>2012-09-15T17:36:51Z</time>
      </trkpt>
      <trkpt lat="53.9718578" lon="26.964404">
        <ele>231.0</ele>
        <time>2012-09-15T17:36:56Z</time>
      </trkpt>
      <trkpt lat="53.9721008" lon="26.9647085">
        <ele>228.0</ele>
        <time>2012-09-15T17:37:03Z</time>
      </trkpt>
      <trkpt lat="53.9722551" lon="26.9647595">
        <ele>228.0</ele>
        <time>2012-09-15T17:37:07Z</time>
      </trkpt>
      <trkpt lat="53.9725164" lon="26.964926">
        <ele>228.0</ele>
        <time>2012-09-15T17:37:14Z</time>
      </trkpt>
      <trkpt lat="53.9728708" lon="26.9649397">
        <ele>227.0</ele>
        <time>2012-09-15T17:37:19Z</time>
      </trkpt>
      <trkpt lat="53.9731822" lon="26.9650108">
        <ele>228.0</ele>
        <time>2012-09-15T17:37:25Z</time>
      </trkpt>
      <trkpt lat="53.9733354" lon="26.9650371">
        <ele>229.0</ele>
        <time>2012-09-15T17:37:29Z</time>
      </trkpt>
      <trkpt lat="53.973502" lon="26.9650749">
        <ele>226.0</ele>
        <time>2012-09-15T17:37:33Z</time>
      </trkpt>
      <trkpt lat="53.9739239" lon="26.9651348">
        <ele>215.0</ele>
        <time>2012-09-15T17:37:38Z</time>
      </trkpt>
      <trkpt lat="53.9741949" lon="26.965189">
        <ele>210.0</ele>
        <time>2012-09-15T17:37:45Z</time>
      </trkpt>
      <trkpt lat="53.9744588" lon="26.9650515">
        <ele>218.0</ele>
        <time>2012-09-15T17:37:53Z</time>
      </trkpt>
      <trkpt lat="53.9745268" lon="26.964821">
        <ele>236.0</ele>
        <time>2012-09-15T17:38:02Z</time>
      </trkpt>
      <trkpt lat="53.9745268" lon="26.964821">
        <time>2012-09-15T17:38:13Z</time>
      </trkpt>
    </trkseg>
    <trkseg>
      <trkpt lat="53.9745268" lon="26.964821">
        <time>2012-09-15T17:38:22Z</time>
      </trkpt>
      <trkpt lat="53.9745751" lon="26.9647553">
        <ele>239.0</ele>
        <time>2012-09-15T17:38:22Z</time>
      </trkpt>
      <trkpt lat="53.9746955" lon="26.9645276">
        <ele>238.0</ele>
        <time>2012-09-15T17:38:28Z</time>
      </trkpt>
      <trkpt lat="53.9748132" lon="26.964288">
        <ele>238.0</ele>
        <time>2012-09-15T17:38:32Z</time>
      </trkpt>
      <trkpt lat="53.9749556" lon="26.963887">
        <ele>234.0</ele>
        <time>2012-09-15T17:38:38Z</time>
      </trkpt>
      <trkpt lat="53.9750746" lon="26.9634323">
        <ele>232.0</ele>
        <time>2012-09-15T17:38:45Z</time>
      </trkpt>
      <trkpt lat="53.9751671" lon="26.9632167">
        <ele>231.0</ele>
        <time>2012-09-15T17:38:49Z</time>
      </trkpt>
      <trkpt lat="53.9752315" lon="26.9627447">
        <ele>232.0</ele>
        <time>2012-09-15T17:38:56Z</time>
      </trkpt>
      <trkpt lat="53.9752504" lon="26.9621182">
        <ele>232.0</ele>
        <time>2012-09-15T17:39:02Z</time>
      </trkpt>
      <trkpt lat="53.9751941" lon="26.9616378">
        <ele>227.0</ele>
        <time>2012-09-15T17:39:08Z</time>
      </trkpt>
      <trkpt lat="53.975125" lon="26.9611738">
        <ele>227.0</ele>
        <time>2012-09-15T17:39:14Z</time>
      </trkpt>
      <trkpt lat="53.9750169" lon="26.9607334">
        <ele>226.0</ele>
        <time>2012-09-15T17:39:20Z</time>
      </trkpt>
      <trkpt lat="53.9750552" lon="26.96021">
        <ele>226.0</ele>
        <time>2012-09-15T17:39:27Z</time>
      </trkpt>
      <trkpt lat="53.9750185" lon="26.9596493">
        <ele>226.0</ele>
        <time>2012-09-15T17:39:33Z</time>
      </trkpt>
      <trkpt lat="53.9749736" lon="26.9589798">
        <ele>225.0</ele>
        <time>2012-09-15T17:39:39Z</time>
      </trkpt>
      <trkpt lat="53.9750168" lon="26.9584921">
        <ele>223.0</ele>
        <time>2012-09-15T17:39:45Z</time>
      </trkpt>
      <trkpt lat="53.975022" lon="26.9581668">
        <ele>222.0</ele>
        <time>2012-09-15T17:39:49Z</time>
      </trkpt>
      <trkpt lat="53.9750289" lon="26.9578685">
        <ele>222.0</ele>
        <time>2012-09-15T17:39:53Z</time>
      </trkpt>
      <trkpt lat="53.9750141" lon="26.9572804">
        <ele>223.0</ele>
        <time>2012-09-15T17:40:00Z</time>
      </trkpt>
      <trkpt lat="53.975049" lon="26.9570443">
        <ele>223.0</ele>
        <time>2012-09-15T17:40:05Z</time>
      </trkpt>
      <trkpt lat="53.9750909" lon="26.9565336">
        <ele>218.0</ele>
        <time>2012-09-15T17:40:11Z</time>
      </trkpt>
      <trkpt lat="53.9751523" lon="26.9562801">
        <ele>216.0</ele>
        <time>2012-09-15T17:40:15Z</time>
      </trkpt>
      <trkpt lat="53.9751013" lon="26.9558966">
        <ele>218.0</ele>
        <time>2012-09-15T17:40:25Z</time>
      </trkpt>
      <trkpt lat="53.9749608" lon="26.9558206">
        <ele>221.0</ele>
        <time>2012-09-15T17:40:30Z</time>
      </trkpt>
      <trkpt lat="53.9747991" lon="26.9557329">
        <ele>221.0</ele>
        <time>2012-09-15T17:40:35Z</time>
      </trkpt>
      <trkpt lat="53.9746612" lon="26.9556062">
        <ele>224.0</ele>
        <time>2012-09-15T17:40:40Z</time>
      </trkpt>
      <trkpt lat="53.9745279" lon="26.9554916">
        <ele>222.0</ele>
        <time>2012-09-15T17:40:45Z</time>
      </trkpt>
      <trkpt lat="53.9742656" lon="26.9552534">
        <ele>222.0</ele>
        <time>2012-09-15T17:40:53Z</time>
      </trkpt>
      <trkpt lat="53.9741391" lon="26.955089">
        <ele>222.0</ele>
        <time>2012-09-15T17:40:58Z</time>
      </trkpt>
      <trkpt lat="53.9738768" lon="26.9547297">
        <ele>216.0</ele>
        <time>2012-09-15T17:41:06Z</time>
      </trkpt>
      <trkpt lat="53.9737984" lon="26.9545297">
        <ele>214.0</ele>
        <time>2012-09-15T17:41:17Z</time>
      </trkpt>
      <trkpt lat="53.9737984" lon="26.9545297">
        <time>2012-09-15T17:41:31Z</time>
      </trkpt>
    </trkseg>
    <trkseg>
      <trkpt lat="53.9737984" lon="26.9545297">
        <time>2012-09-15T17:41:31Z</time>
      </trkpt>
      <trkpt lat="53.973737" lon="26.9545338">
        <ele>227.0</ele>
        <time>2012-09-15T17:41:31Z</time>
      </trkpt>
      <trkpt lat="53.973737" lon="26.9545338">
        <time>2012-09-15T17:41:44Z</time>
      </trkpt>
    </trkseg>
    <trkseg>
      <trkpt lat="53.973737" lon="26.9545338">
        <time>2012-09-15T17:41:49Z</time>
      </trkpt>
      <trkpt lat="53.9737234" lon="26.9546525">
        <ele>236.0</ele>
        <time>2012-09-15T17:41:49Z</time>
      </trkpt>
      <trkpt lat="53.9737234" lon="26.9546525">
        <time>2012-09-15T17:42:01Z</time>
      </trkpt>
    </trkseg>
    <trkseg>
      <trkpt lat="53.9737234" lon="26.9546525">
        <time>2012-09-15T17:42:14Z</time>
      </trkpt>
      <trkpt lat="53.9736673" lon="26.9547122">
        <ele>237.0</ele>
        <time>2012-09-15T17:42:14Z</time>
      </trkpt>
      <trkpt lat="53.9736673" lon="26.9547122">
        <time>2012-09-15T17:42:17Z</time>
      </trkpt>
    </trkseg>
    <trkseg>
      <trkpt lat="53.9736673" lon="26.9547122">
        <time>2012-09-15T17:50:13Z</time>
      </trkpt>
      <trkpt lat="53.9700326" lon="26.9539184">
        <ele>336.0</ele>
        <time>2012-09-15T17:50:16Z</time>
      </trkpt>
      <trkpt lat="53.9702101" lon="26.9540255">
        <ele>250.0</ele>
        <time>2012-09-15T17:50:25Z</time>
      </trkpt>
      <trkpt lat="53.9702418" lon="26.9542485">
        <ele>242.0</ele>
        <time>2012-09-15T17:50:37Z</time>
      </trkpt>
      <trkpt lat="53.9701447" lon="26.9544262">
        <ele>238.0</ele>
        <time>2012-09-15T17:50:50Z</time>
      </trkpt>
      <trkpt lat="53.9700504" lon="26.9546118">
        <ele>236.0</ele>
        <time>2012-09-15T17:51:07Z</time>
      </trkpt>
      <trkpt lat="53.970007" lon="26.9548288">
        <ele>238.0</ele>
        <time>2012-09-15T17:51:30Z</time>
      </trkpt>
      <trkpt lat="53.9699157" lon="26.9549989">
        <ele>241.0</ele>
        <time>2012-09-15T17:51:54Z</time>
      </trkpt>
      <trkpt lat="53.9699157" lon="26.9549989">
        <time>2012-09-15T17:51:58Z</time>
      </trkpt>
    </trkseg>
    <trkseg>
      <trkpt lat="53.9699157" lon="26.9549989">
        <time>2012-09-15T17:51:59Z</time>
      </trkpt>
      <trkpt lat="53.9698931" lon="26.9550177">
        <ele>241.0</ele>
        <time>2012-09-15T17:52:00Z</time>
      </trkpt>
      <trkpt lat="53.9698032" lon="26.9552096">
        <ele>243.0</ele>
        <time>2012-09-15T17:52:12Z</time>
      </trkpt>
      <trkpt lat="53.969741" lon="26.9554261">
        <ele>241.0</ele>
        <time>2012-09-15T17:52:18Z</time>
      </trkpt>
      <trkpt lat="53.9696619" lon="26.9556185">
        <ele>242.0</ele>
        <time>2012-09-15T17:52:27Z</time>
      </trkpt>
      <trkpt lat="53.9695922" lon="26.9558379">
        <ele>244.0</ele>
        <time>2012-09-15T17:52:38Z</time>
      </trkpt>
      <trkpt lat="53.9695158" lon="26.9560592">
        <ele>241.0</ele>
        <time>2012-09-15T17:52:46Z</time>
      </trkpt>
      <trkpt lat="53.9694328" lon="26.9562506">
        <ele>243.0</ele>
        <time>2012-09-15T17:52:54Z</time>
      </trkpt>
      <trkpt lat="53.9693605" lon="26.9564715">
        <ele>245.0</ele>
        <time>2012-09-15T17:52:59Z</time>
      </trkpt>
      <trkpt lat="53.9692958" lon="26.9566812">
        <ele>245.0</ele>
        <time>2012-09-15T17:53:07Z</time>
      </trkpt>
      <trkpt lat="53.9691966" lon="26.9568883">
        <ele>244.0</ele>
        <time>2012-09-15T17:53:15Z</time>
      </trkpt>
      <trkpt lat="53.9691049" lon="26.9570858">
        <ele>244.0</ele>
        <time>2012-09-15T17:53:22Z</time>
      </trkpt>
      <trkpt lat="53.9690282" lon="26.9572883">
        <ele>246.0</ele>
        <time>2012-09-15T17:53:31Z</time>
      </trkpt>
      <trkpt lat="53.9689654" lon="26.957499">
        <ele>246.0</ele>
        <time>2012-09-15T17:53:37Z</time>
      </trkpt>
      <trkpt lat="53.968882" lon="26.9576861">
        <ele>245.0</ele>
        <time>2012-09-15T17:53:43Z</time>
      </trkpt>
      <trkpt lat="53.9687977" lon="26.9579032">
        <ele>244.0</ele>
        <time>2012-09-15T17:53:50Z</time>
      </trkpt>
      <trkpt lat="53.9686923" lon="26.9580965">
        <ele>243.0</ele>
        <time>2012-09-15T17:53:56Z</time>
      </trkpt>
      <trkpt lat="53.9685955" lon="26.9582679">
        <ele>243.0</ele>
        <time>2012-09-15T17:54:02Z</time>
      </trkpt>
      <trkpt lat="53.9684916" lon="26.9584287">
        <ele>241.0</ele>
        <time>2012-09-15T17:54:07Z</time>
      </trkpt>
      <trkpt lat="53.9684162" lon="26.958652">
        <ele>240.0</ele>
        <time>2012-09-15T17:54:14Z</time>
      </trkpt>
      <trkpt lat="53.9682887" lon="26.9587702">
        <ele>240.0</ele>
        <time>2012-09-15T17:54:22Z</time>
      </trkpt>
      <trkpt lat="53.9681514" lon="26.9587885">
        <ele>238.0</ele>
        <time>2012-09-15T17:54:31Z</time>
      </trkpt>
      <trkpt lat="53.9679967" lon="26.9587339">
        <ele>238.0</ele>
        <time>2012-09-15T17:54:40Z</time>
      </trkpt>
      <trkpt lat="53.9678569" lon="26.9587811">
        <ele>238.0</ele>
        <time>2012-09-15T17:54:46Z</time>
      </trkpt>
      <trkpt lat="53.9677203" lon="26.9588028">
        <ele>235.0</ele>
        <time>2012-09-15T17:54:52Z</time>
      </trkpt>
      <trkpt lat="53.9675804" lon="26.9587712">
        <ele>230.0</ele>
        <time>2012-09-15T17:54:57Z</time>
      </trkpt>
      <trkpt lat="53.967448" lon="26.9586811">
        <ele>230.0</ele>
        <time>2012-09-15T17:55:02Z</time>
      </trkpt>
      <trkpt lat="53.967309" lon="26.9586676">
        <ele>227.0</ele>
        <time>2012-09-15T17:55:07Z</time>
      </trkpt>
      <trkpt lat="53.9671707" lon="26.9586764">
        <ele>227.0</ele>
        <time>2012-09-15T17:55:14Z</time>
      </trkpt>
      <trkpt lat="53.9670292" lon="26.9587024">
        <ele>228.0</ele>
        <time>2012-09-15T17:55:21Z</time>
      </trkpt>
      <trkpt lat="53.9668787" lon="26.9587038">
        <ele>229.0</ele>
        <time>2012-09-15T17:55:28Z</time>
      </trkpt>
      <trkpt lat="53.9667199" lon="26.9586842">
        <ele>230.0</ele>
        <time>2012-09-15T17:55:33Z</time>
      </trkpt>
      <trkpt lat="53.966564" lon="26.9586932">
        <ele>233.0</ele>
        <time>2012-09-15T17:55:39Z</time>
      </trkpt>
      <trkpt lat="53.9663967" lon="26.9586988">
        <ele>236.0</ele>
        <time>2012-09-15T17:55:44Z</time>
      </trkpt>
      <trkpt lat="53.9662412" lon="26.9586929">
        <ele>237.0</ele>
        <time>2012-09-15T17:55:50Z</time>
      </trkpt>
      <trkpt lat="53.9661019" lon="26.9586553">
        <ele>237.0</ele>
        <time>2012-09-15T17:55:55Z</time>
      </trkpt>
      <trkpt lat="53.9659381" lon="26.9586181">
        <ele>239.0</ele>
        <time>2012-09-15T17:56:00Z</time>
      </trkpt>
      <trkpt lat="53.9657792" lon="26.9586195">
        <ele>239.0</ele>
        <time>2012-09-15T17:56:04Z</time>
      </trkpt>
      <trkpt lat="53.9654678" lon="26.9585338">
        <ele>243.0</ele>
        <time>2012-09-15T17:56:11Z</time>
      </trkpt>
      <trkpt lat="53.9653052" lon="26.9584943">
        <ele>244.0</ele>
        <time>2012-09-15T17:56:16Z</time>
      </trkpt>
      <trkpt lat="53.9649955" lon="26.9583711">
        <ele>245.0</ele>
        <time>2012-09-15T17:56:22Z</time>
      </trkpt>
      <trkpt lat="53.9648568" lon="26.958322">
        <ele>242.0</ele>
        <time>2012-09-15T17:56:26Z</time>
      </trkpt>
      <trkpt lat="53.9647168" lon="26.9583307">
        <ele>237.0</ele>
        <time>2012-09-15T17:56:32Z</time>
      </trkpt>
      <trkpt lat="53.9645758" lon="26.958304">
        <ele>235.0</ele>
        <time>2012-09-15T17:56:37Z</time>
      </trkpt>
      <trkpt lat="53.9644287" lon="26.9582342">
        <ele>234.0</ele>
        <time>2012-09-15T17:56:44Z</time>
      </trkpt>
      <trkpt lat="53.9643434" lon="26.9580114">
        <ele>237.0</ele>
        <time>2012-09-15T17:56:52Z</time>
      </trkpt>
      <trkpt lat="53.9642999" lon="26.9577771">
        <ele>234.0</ele>
        <time>2012-09-15T17:57:04Z</time>
      </trkpt>
      <trkpt lat="53.9643565" lon="26.9575569">
        <ele>239.0</ele>
        <time>2012-09-15T17:57:10Z</time>
      </trkpt>
      <trkpt lat="53.9643773" lon="26.9573067">
        <ele>239.0</ele>
        <time>2012-09-15T17:57:16Z</time>
      </trkpt>
      <trkpt lat="53.9643893" lon="26.9570721">
        <ele>240.0</ele>
        <time>2012-09-15T17:57:23Z</time>
      </trkpt>
      <trkpt lat="53.964377" lon="26.9568408">
        <ele>239.0</ele>
        <time>2012-09-15T17:57:29Z</time>
      </trkpt>
      <trkpt lat="53.964342" lon="26.956551">
        <ele>240.0</ele>
        <time>2012-09-15T17:57:35Z</time>
      </trkpt>
      <trkpt lat="53.9643201" lon="26.9563012">
        <ele>239.0</ele>
        <time>2012-09-15T17:57:41Z</time>
      </trkpt>
      <trkpt lat="53.9642542" lon="26.9560307">
        <ele>243.0</ele>
        <time>2012-09-15T17:57:47Z</time>
      </trkpt>
      <trkpt lat="53.9641945" lon="26.9557549">
        <ele>247.0</ele>
        <time>2012-09-15T17:57:51Z</time>
      </trkpt>
      <trkpt lat="53.9641808" lon="26.9554846">
        <ele>242.0</ele>
        <time>2012-09-15T17:57:56Z</time>
      </trkpt>
      <trkpt lat="53.9641811" lon="26.9552556">
        <ele>240.0</ele>
        <time>2012-09-15T17:58:01Z</time>
      </trkpt>
      <trkpt lat="53.9641798" lon="26.9549624">
        <ele>240.0</ele>
        <time>2012-09-15T17:58:07Z</time>
      </trkpt>
      <trkpt lat="53.9641631" lon="26.9546805">
        <ele>248.0</ele>
        <time>2012-09-15T17:58:11Z</time>
      </trkpt>
      <trkpt lat="53.9641387" lon="26.9544128">
        <ele>248.0</ele>
        <time>2012-09-15T17:58:16Z</time>
      </trkpt>
      <trkpt lat="53.9641127" lon="26.9538679">
        <ele>243.0</ele>
        <time>2012-09-15T17:58:23Z</time>
      </trkpt>
      <trkpt lat="53.9640507" lon="26.9532199">
        <ele>242.0</ele>
        <time>2012-09-15T17:58:30Z</time>
      </trkpt>
      <trkpt lat="53.9640072" lon="26.9526603">
        <ele>242.0</ele>
        <time>2012-09-15T17:58:37Z</time>
      </trkpt>
      <trkpt lat="53.9639341" lon="26.9519651">
        <ele>241.0</ele>
        <time>2012-09-15T17:58:42Z</time>
      </trkpt>
      <trkpt lat="53.9637246" lon="26.9516183">
        <ele>236.0</ele>
        <time>2012-09-15T17:58:48Z</time>
      </trkpt>
      <trkpt lat="53.9634388" lon="26.9513343">
        <ele>235.0</ele>
        <time>2012-09-15T17:58:54Z</time>
      </trkpt>
      <trkpt lat="53.9631093" lon="26.9510949">
        <ele>231.0</ele>
        <time>2012-09-15T17:58:59Z</time>
      </trkpt>
      <trkpt lat="53.9627493" lon="26.9511287">
        <ele>231.0</ele>
        <time>2012-09-15T17:59:04Z</time>
      </trkpt>
      <trkpt lat="53.9624339" lon="26.9512576">
        <ele>228.0</ele>
        <time>2012-09-15T17:59:11Z</time>
      </trkpt>
      <trkpt lat="53.9621128" lon="26.9512856">
        <ele>227.0</ele>
        <time>2012-09-15T17:59:17Z</time>
      </trkpt>
      <trkpt lat="53.9618204" lon="26.9514215">
        <ele>228.0</ele>
        <time>2012-09-15T17:59:24Z</time>
      </trkpt>
      <trkpt lat="53.9616537" lon="26.9514019">
        <ele>227.0</ele>
        <time>2012-09-15T17:59:28Z</time>
      </trkpt>
      <trkpt lat="53.961512" lon="26.9514318">
        <ele>227.0</ele>
        <time>2012-09-15T17:59:32Z</time>
      </trkpt>
      <trkpt lat="53.9613646" lon="26.9515425">
        <ele>226.0</ele>
        <time>2012-09-15T17:59:37Z</time>
      </trkpt>
      <trkpt lat="53.9612231" lon="26.951668">
        <ele>228.0</ele>
        <time>2012-09-15T17:59:42Z</time>
      </trkpt>
      <trkpt lat="53.9610757" lon="26.9517622">
        <ele>230.0</ele>
        <time>2012-09-15T17:59:48Z</time>
      </trkpt>
      <trkpt lat="53.9609265" lon="26.951811">
        <ele>229.0</ele>
        <time>2012-09-15T17:59:53Z</time>
      </trkpt>
      <trkpt lat="53.9607649" lon="26.9518559">
        <ele>229.0</ele>
        <time>2012-09-15T17:59:58Z</time>
      </trkpt>
      <trkpt lat="53.9606296" lon="26.9519089">
        <ele>229.0</ele>
        <time>2012-09-15T18:00:02Z</time>
      </trkpt>
      <trkpt lat="53.9604826" lon="26.9519889">
        <ele>228.0</ele>
        <time>2012-09-15T18:00:06Z</time>
      </trkpt>
      <trkpt lat="53.9601546" lon="26.9520925">
        <ele>225.0</ele>
        <time>2012-09-15T18:00:15Z</time>
      </trkpt>
      <trkpt lat="53.9599996" lon="26.9521661">
        <ele>224.0</ele>
        <time>2012-09-15T18:00:19Z</time>
      </trkpt>
      <trkpt lat="53.959785" lon="26.9519049">
        <ele>221.0</ele>
        <time>2012-09-15T18:00:25Z</time>
      </trkpt>
      <trkpt lat="53.9595061" lon="26.9516742">
        <ele>223.0</ele>
        <time>2012-09-15T18:00:32Z</time>
      </trkpt>
      <trkpt lat="53.9592372" lon="26.9518462">
        <ele>228.0</ele>
        <time>2012-09-15T18:00:38Z</time>
      </trkpt>
      <trkpt lat="53.9589301" lon="26.952001">
        <ele>228.0</ele>
        <time>2012-09-15T18:00:46Z</time>
      </trkpt>
      <trkpt lat="53.958788" lon="26.9520856">
        <ele>228.0</ele>
        <time>2012-09-15T18:00:50Z</time>
      </trkpt>
      <trkpt lat="53.9586591" lon="26.9521685">
        <ele>227.0</ele>
        <time>2012-09-15T18:00:56Z</time>
      </trkpt>
      <trkpt lat="53.9584076" lon="26.9519858">
        <ele>222.0</ele>
        <time>2012-09-15T18:01:02Z</time>
      </trkpt>
      <trkpt lat="53.9582931" lon="26.9518287">
        <ele>225.0</ele>
        <time>2012-09-15T18:01:08Z</time>
      </trkpt>
      <trkpt lat="53.9582931" lon="26.9518287">
        <time>2012-09-15T18:01:31Z</time>
      </trkpt>
    </trkseg>
    <trkseg>
      <trkpt lat="53.9582931" lon="26.9518287">
        <time>2012-09-15T18:01:56Z</time>
      </trkpt>
      <trkpt lat="53.9581976" lon="26.9517299">
        <ele>213.0</ele>
        <time>2012-09-15T18:01:56Z</time>
      </trkpt>
      <trkpt lat="53.9579662" lon="26.9517842">
        <ele>217.0</ele>
        <time>2012-09-15T18:02:01Z</time>
      </trkpt>
      <trkpt lat="53.9576799" lon="26.9520048">
        <ele>217.0</ele>
        <time>2012-09-15T18:02:08Z</time>
      </trkpt>
      <trkpt lat="53.9574102" lon="26.9522219">
        <ele>218.0</ele>
        <time>2012-09-15T18:02:16Z</time>
      </trkpt>
      <trkpt lat="53.9571403" lon="26.9523781">
        <ele>223.0</ele>
        <time>2012-09-15T18:02:22Z</time>
      </trkpt>
      <trkpt lat="53.9568128" lon="26.9524547">
        <ele>224.0</ele>
        <time>2012-09-15T18:02:29Z</time>
      </trkpt>
      <trkpt lat="53.9565809" lon="26.9527291">
        <ele>222.0</ele>
        <time>2012-09-15T18:02:37Z</time>
      </trkpt>
      <trkpt lat="53.9564304" lon="26.952775">
        <ele>221.0</ele>
        <time>2012-09-15T18:02:45Z</time>
      </trkpt>
      <trkpt lat="53.9562658" lon="26.9527824">
        <ele>219.0</ele>
        <time>2012-09-15T18:02:50Z</time>
      </trkpt>
      <trkpt lat="53.9560933" lon="26.9527956">
        <ele>220.0</ele>
        <time>2012-09-15T18:02:55Z</time>
      </trkpt>
      <trkpt lat="53.9557721" lon="26.9527469">
        <ele>223.0</ele>
        <time>2012-09-15T18:03:03Z</time>
      </trkpt>
      <trkpt lat="53.9554794" lon="26.9527193">
        <ele>232.0</ele>
        <time>2012-09-15T18:03:10Z</time>
      </trkpt>
      <trkpt lat="53.9553428" lon="26.9527999">
        <ele>233.0</ele>
        <time>2012-09-15T18:03:20Z</time>
      </trkpt>
      <trkpt lat="53.9553241" lon="26.9530519">
        <ele>234.0</ele>
        <time>2012-09-15T18:03:27Z</time>
      </trkpt>
      <trkpt lat="53.9553811" lon="26.9532922">
        <ele>235.0</ele>
        <time>2012-09-15T18:03:32Z</time>
      </trkpt>
      <trkpt lat="53.9554225" lon="26.9535548">
        <ele>237.0</ele>
        <time>2012-09-15T18:03:37Z</time>
      </trkpt>
      <trkpt lat="53.9554483" lon="26.9537851">
        <ele>237.0</ele>
        <time>2012-09-15T18:03:41Z</time>
      </trkpt>
      <trkpt lat="53.9554716" lon="26.9540236">
        <ele>235.0</ele>
        <time>2012-09-15T18:03:46Z</time>
      </trkpt>
      <trkpt lat="53.95549" lon="26.9545148">
        <ele>232.0</ele>
        <time>2012-09-15T18:03:55Z</time>
      </trkpt>
      <trkpt lat="53.955505" lon="26.954751">
        <ele>235.0</ele>
        <time>2012-09-15T18:04:03Z</time>
      </trkpt>
      <trkpt lat="53.9555331" lon="26.9549809">
        <ele>234.0</ele>
        <time>2012-09-15T18:04:18Z</time>
      </trkpt>
      <trkpt lat="53.9555908" lon="26.9552317">
        <ele>236.0</ele>
        <time>2012-09-15T18:04:26Z</time>
      </trkpt>
      <trkpt lat="53.9556403" lon="26.9554742">
        <ele>243.0</ele>
        <time>2012-09-15T18:04:33Z</time>
      </trkpt>
      <trkpt lat="53.9556907" lon="26.9557036">
        <ele>244.0</ele>
        <time>2012-09-15T18:04:41Z</time>
      </trkpt>
      <trkpt lat="53.9557279" lon="26.9559374">
        <ele>247.0</ele>
        <time>2012-09-15T18:04:51Z</time>
      </trkpt>
      <trkpt lat="53.955739" lon="26.9561766">
        <ele>247.0</ele>
        <time>2012-09-15T18:04:59Z</time>
      </trkpt>
      <trkpt lat="53.9557651" lon="26.9564187">
        <ele>247.0</ele>
        <time>2012-09-15T18:05:07Z</time>
      </trkpt>
      <trkpt lat="53.9557935" lon="26.956645">
        <ele>246.0</ele>
        <time>2012-09-15T18:05:14Z</time>
      </trkpt>
      <trkpt lat="53.9558121" lon="26.9569035">
        <ele>250.0</ele>
        <time>2012-09-15T18:05:22Z</time>
      </trkpt>
      <trkpt lat="53.9558112" lon="26.9571411">
        <ele>244.0</ele>
        <time>2012-09-15T18:05:31Z</time>
      </trkpt>
      <trkpt lat="53.9558093" lon="26.9573976">
        <ele>251.0</ele>
        <time>2012-09-15T18:05:39Z</time>
      </trkpt>
      <trkpt lat="53.9557728" lon="26.957636">
        <ele>254.0</ele>
        <time>2012-09-15T18:05:44Z</time>
      </trkpt>
      <trkpt lat="53.9557148" lon="26.9578621">
        <ele>254.0</ele>
        <time>2012-09-15T18:05:50Z</time>
      </trkpt>
      <trkpt lat="53.9556218" lon="26.9583838">
        <ele>255.0</ele>
        <time>2012-09-15T18:05:55Z</time>
      </trkpt>
      <trkpt lat="53.9555253" lon="26.9590818">
        <ele>256.0</ele>
        <time>2012-09-15T18:06:01Z</time>
      </trkpt>
      <trkpt lat="53.9554452" lon="26.9595776">
        <ele>255.0</ele>
        <time>2012-09-15T18:06:05Z</time>
      </trkpt>
      <trkpt lat="53.9553185" lon="26.9600766">
        <ele>252.0</ele>
        <time>2012-09-15T18:06:11Z</time>
      </trkpt>
      <trkpt lat="53.955222" lon="26.9606809">
        <ele>247.0</ele>
        <time>2012-09-15T18:06:15Z</time>
      </trkpt>
      <trkpt lat="53.9551109" lon="26.9612344">
        <ele>248.0</ele>
        <time>2012-09-15T18:06:20Z</time>
      </trkpt>
      <trkpt lat="53.9549022" lon="26.9616788">
        <ele>246.0</ele>
        <time>2012-09-15T18:06:26Z</time>
      </trkpt>
      <trkpt lat="53.9547773" lon="26.9618816">
        <ele>248.0</ele>
        <time>2012-09-15T18:06:30Z</time>
      </trkpt>
      <trkpt lat="53.9546806" lon="26.9622943">
        <ele>248.0</ele>
        <time>2012-09-15T18:06:36Z</time>
      </trkpt>
      <trkpt lat="53.9546181" lon="26.9625313">
        <ele>247.0</ele>
        <time>2012-09-15T18:06:41Z</time>
      </trkpt>
      <trkpt lat="53.9545347" lon="26.963022">
        <ele>248.0</ele>
        <time>2012-09-15T18:06:49Z</time>
      </trkpt>
      <trkpt lat="53.9544814" lon="26.963238">
        <ele>245.0</ele>
        <time>2012-09-15T18:06:55Z</time>
      </trkpt>
      <trkpt lat="53.9544556" lon="26.9634642">
        <ele>246.0</ele>
        <time>2012-09-15T18:07:01Z</time>
      </trkpt>
      <trkpt lat="53.95448" lon="26.9637117">
        <ele>251.0</ele>
        <time>2012-09-15T18:07:11Z</time>
      </trkpt>
      <trkpt lat="53.9544583" lon="26.9639617">
        <ele>256.0</ele>
        <time>2012-09-15T18:07:16Z</time>
      </trkpt>
      <trkpt lat="53.954417" lon="26.9642276">
        <ele>256.0</ele>
        <time>2012-09-15T18:07:20Z</time>
      </trkpt>
      <trkpt lat="53.9543484" lon="26.96472">
        <ele>256.0</ele>
        <time>2012-09-15T18:07:29Z</time>
      </trkpt>
      <trkpt lat="53.9542974" lon="26.964942">
        <ele>256.0</ele>
        <time>2012-09-15T18:07:33Z</time>
      </trkpt>
      <trkpt lat="53.9542402" lon="26.9651566">
        <ele>256.0</ele>
        <time>2012-09-15T18:07:38Z</time>
      </trkpt>
      <trkpt lat="53.9541304" lon="26.9655831">
        <ele>256.0</ele>
        <time>2012-09-15T18:07:45Z</time>
      </trkpt>
      <trkpt lat="53.954047" lon="26.965824">
        <ele>256.0</ele>
        <time>2012-09-15T18:07:50Z</time>
      </trkpt>
      <trkpt lat="53.9539383" lon="26.9663519">
        <ele>257.0</ele>
        <time>2012-09-15T18:07:57Z</time>
      </trkpt>
      <trkpt lat="53.95388" lon="26.9671929">
        <ele>254.0</ele>
        <time>2012-09-15T18:08:02Z</time>
      </trkpt>
      <trkpt lat="53.9537738" lon="26.9681189">
        <ele>250.0</ele>
        <time>2012-09-15T18:08:07Z</time>
      </trkpt>
      <trkpt lat="53.9536309" lon="26.9688343">
        <ele>238.0</ele>
        <time>2012-09-15T18:08:12Z</time>
      </trkpt>
      <trkpt lat="53.9534522" lon="26.9696883">
        <ele>239.0</ele>
        <time>2012-09-15T18:08:17Z</time>
      </trkpt>
      <trkpt lat="53.9534295" lon="26.9702921">
        <ele>238.0</ele>
        <time>2012-09-15T18:08:21Z</time>
      </trkpt>
      <trkpt lat="53.9533437" lon="26.9709601">
        <ele>239.0</ele>
        <time>2012-09-15T18:08:25Z</time>
      </trkpt>
      <trkpt lat="53.953253" lon="26.9715476">
        <ele>238.0</ele>
        <time>2012-09-15T18:08:30Z</time>
      </trkpt>
      <trkpt lat="53.9532101" lon="26.9721342">
        <ele>237.0</ele>
        <time>2012-09-15T18:08:34Z</time>
      </trkpt>
      <trkpt lat="53.9531261" lon="26.973052">
        <ele>232.0</ele>
        <time>2012-09-15T18:08:40Z</time>
      </trkpt>
      <trkpt lat="53.9530885" lon="26.9735226">
        <ele>225.0</ele>
        <time>2012-09-15T18:08:52Z</time>
      </trkpt>
      <trkpt lat="53.9533893" lon="26.9735275">
        <ele>219.0</ele>
        <time>2012-09-15T18:09:00Z</time>
      </trkpt>
      <trkpt lat="53.9536869" lon="26.9736343">
        <ele>221.0</ele>
        <time>2012-09-15T18:09:07Z</time>
      </trkpt>
      <trkpt lat="53.953858" lon="26.9736687">
        <ele>220.0</ele>
        <time>2012-09-15T18:09:12Z</time>
      </trkpt>
      <trkpt lat="53.9541364" lon="26.9735762">
        <ele>217.0</ele>
        <time>2012-09-15T18:09:20Z</time>
      </trkpt>
      <trkpt lat="53.9543952" lon="26.9733107">
        <ele>214.0</ele>
        <time>2012-09-15T18:09:26Z</time>
      </trkpt>
      <trkpt lat="53.9545163" lon="26.9731237">
        <ele>215.0</ele>
        <time>2012-09-15T18:09:30Z</time>
      </trkpt>
      <trkpt lat="53.9546235" lon="26.9729493">
        <ele>216.0</ele>
        <time>2012-09-15T18:09:35Z</time>
      </trkpt>
      <trkpt lat="53.9548938" lon="26.9726558">
        <ele>222.0</ele>
        <time>2012-09-15T18:09:42Z</time>
      </trkpt>
      <trkpt lat="53.9552007" lon="26.9725617">
        <ele>222.0</ele>
        <time>2012-09-15T18:09:49Z</time>
      </trkpt>
      <trkpt lat="53.9554992" lon="26.9727294">
        <ele>224.0</ele>
        <time>2012-09-15T18:09:55Z</time>
      </trkpt>
      <trkpt lat="53.9557887" lon="26.9729609">
        <ele>224.0</ele>
        <time>2012-09-15T18:10:02Z</time>
      </trkpt>
      <trkpt lat="53.9560983" lon="26.9731558">
        <ele>225.0</ele>
        <time>2012-09-15T18:10:08Z</time>
      </trkpt>
      <trkpt lat="53.9563939" lon="26.9732775">
        <ele>225.0</ele>
        <time>2012-09-15T18:10:14Z</time>
      </trkpt>
      <trkpt lat="53.9566924" lon="26.973513">
        <ele>225.0</ele>
        <time>2012-09-15T18:10:21Z</time>
      </trkpt>
      <trkpt lat="53.9570015" lon="26.9736982">
        <ele>227.0</ele>
        <time>2012-09-15T18:10:28Z</time>
      </trkpt>
      <trkpt lat="53.9572927" lon="26.973875">
        <ele>228.0</ele>
        <time>2012-09-15T18:10:36Z</time>
      </trkpt>
      <trkpt lat="53.9574233" lon="26.9740032">
        <ele>228.0</ele>
        <time>2012-09-15T18:10:41Z</time>
      </trkpt>
      <trkpt lat="53.9575821" lon="26.9741068">
        <ele>224.0</ele>
        <time>2012-09-15T18:10:47Z</time>
      </trkpt>
      <trkpt lat="53.9578706" lon="26.9743637">
        <ele>221.0</ele>
        <time>2012-09-15T18:10:55Z</time>
      </trkpt>
      <trkpt lat="53.9581882" lon="26.9745472">
        <ele>222.0</ele>
        <time>2012-09-15T18:11:01Z</time>
      </trkpt>
      <trkpt lat="53.9584869" lon="26.9746565">
        <ele>222.0</ele>
        <time>2012-09-15T18:11:06Z</time>
      </trkpt>
      <trkpt lat="53.9587653" lon="26.9748089">
        <ele>223.0</ele>
        <time>2012-09-15T18:11:13Z</time>
      </trkpt>
      <trkpt lat="53.9590503" lon="26.9750275">
        <ele>222.0</ele>
        <time>2012-09-15T18:11:20Z</time>
      </trkpt>
      <trkpt lat="53.9591838" lon="26.9751002">
        <ele>221.0</ele>
        <time>2012-09-15T18:11:25Z</time>
      </trkpt>
      <trkpt lat="53.9593104" lon="26.9751803">
        <ele>222.0</ele>
        <time>2012-09-15T18:11:30Z</time>
      </trkpt>
      <trkpt lat="53.959459" lon="26.9752614">
        <ele>223.0</ele>
        <time>2012-09-15T18:11:35Z</time>
      </trkpt>
      <trkpt lat="53.9596029" lon="26.9753373">
        <ele>221.0</ele>
        <time>2012-09-15T18:11:41Z</time>
      </trkpt>
      <trkpt lat="53.9597564" lon="26.9754365">
        <ele>222.0</ele>
        <time>2012-09-15T18:11:45Z</time>
      </trkpt>
      <trkpt lat="53.9599069" lon="26.9754953">
        <ele>221.0</ele>
        <time>2012-09-15T18:11:49Z</time>
      </trkpt>
      <trkpt lat="53.960187" lon="26.9757389">
        <ele>221.0</ele>
        <time>2012-09-15T18:11:54Z</time>
      </trkpt>
      <trkpt lat="53.9605324" lon="26.9759005">
        <ele>216.0</ele>
        <time>2012-09-15T18:11:59Z</time>
      </trkpt>
      <trkpt lat="53.9608141" lon="26.9759909">
        <ele>217.0</ele>
        <time>2012-09-15T18:12:04Z</time>
      </trkpt>
      <trkpt lat="53.9609434" lon="26.9761122">
        <ele>218.0</ele>
        <time>2012-09-15T18:12:08Z</time>
      </trkpt>
      <trkpt lat="53.9610638" lon="26.9762571">
        <ele>222.0</ele>
        <time>2012-09-15T18:12:14Z</time>
      </trkpt>
      <trkpt lat="53.9612011" lon="26.9762862">
        <ele>221.0</ele>
        <time>2012-09-15T18:12:22Z</time>
      </trkpt>
      <trkpt lat="53.9612514" lon="26.9765012">
        <ele>223.0</ele>
        <time>2012-09-15T18:12:37Z</time>
      </trkpt>
      <trkpt lat="53.9613876" lon="26.976604">
        <ele>221.0</ele>
        <time>2012-09-15T18:12:52Z</time>
      </trkpt>
      <trkpt lat="53.961638" lon="26.9765494">
        <ele>224.0</ele>
        <time>2012-09-15T18:13:10Z</time>
      </trkpt>
      <trkpt lat="53.9616668" lon="26.9771839">
        <ele>228.0</ele>
        <time>2012-09-15T18:13:16Z</time>
      </trkpt>
      <trkpt lat="53.9616984" lon="26.9777304">
        <ele>228.0</ele>
        <time>2012-09-15T18:13:21Z</time>
      </trkpt>
      <trkpt lat="53.9618233" lon="26.978543">
        <ele>224.0</ele>
        <time>2012-09-15T18:13:26Z</time>
      </trkpt>
      <trkpt lat="53.9619603" lon="26.9791497">
        <ele>223.0</ele>
        <time>2012-09-15T18:13:31Z</time>
      </trkpt>
      <trkpt lat="53.9621361" lon="26.9796599">
        <ele>222.0</ele>
        <time>2012-09-15T18:13:37Z</time>
      </trkpt>
      <trkpt lat="53.9622433" lon="26.9802573">
        <ele>222.0</ele>
        <time>2012-09-15T18:13:41Z</time>
      </trkpt>
      <trkpt lat="53.9624635" lon="26.980724">
        <ele>219.0</ele>
        <time>2012-09-15T18:13:47Z</time>
      </trkpt>
      <trkpt lat="53.9626402" lon="26.9812127">
        <ele>220.0</ele>
        <time>2012-09-15T18:13:54Z</time>
      </trkpt>
      <trkpt lat="53.9627596" lon="26.9816864">
        <ele>220.0</ele>
        <time>2012-09-15T18:13:58Z</time>
      </trkpt>
      <trkpt lat="53.9629102" lon="26.9822152">
        <ele>221.0</ele>
        <time>2012-09-15T18:14:05Z</time>
      </trkpt>
      <trkpt lat="53.9630498" lon="26.9826436">
        <ele>222.0</ele>
        <time>2012-09-15T18:14:10Z</time>
      </trkpt>
      <trkpt lat="53.9631898" lon="26.9831179">
        <ele>222.0</ele>
        <time>2012-09-15T18:14:16Z</time>
      </trkpt>
      <trkpt lat="53.96336" lon="26.9835584">
        <ele>229.0</ele>
        <time>2012-09-15T18:14:23Z</time>
      </trkpt>
      <trkpt lat="53.9634577" lon="26.9840032">
        <ele>228.0</ele>
        <time>2012-09-15T18:14:29Z</time>
      </trkpt>
      <trkpt lat="53.9635758" lon="26.9844981">
        <ele>228.0</ele>
        <time>2012-09-15T18:14:38Z</time>
      </trkpt>
      <trkpt lat="53.9636514" lon="26.9849544">
        <ele>227.0</ele>
        <time>2012-09-15T18:14:47Z</time>
      </trkpt>
      <trkpt lat="53.9636337" lon="26.9852033">
        <ele>227.0</ele>
        <time>2012-09-15T18:14:51Z</time>
      </trkpt>
      <trkpt lat="53.9636445" lon="26.985432">
        <ele>226.0</ele>
        <time>2012-09-15T18:14:56Z</time>
      </trkpt>
      <trkpt lat="53.9636336" lon="26.9856997">
        <ele>222.0</ele>
        <time>2012-09-15T18:15:01Z</time>
      </trkpt>
      <trkpt lat="53.9635674" lon="26.9859345">
        <ele>220.0</ele>
        <time>2012-09-15T18:15:06Z</time>
      </trkpt>
      <trkpt lat="53.963564" lon="26.9861812">
        <ele>220.0</ele>
        <time>2012-09-15T18:15:12Z</time>
      </trkpt>
      <trkpt lat="53.9635669" lon="26.9864484">
        <ele>219.0</ele>
        <time>2012-09-15T18:15:16Z</time>
      </trkpt>
      <trkpt lat="53.9635749" lon="26.9869808">
        <ele>216.0</ele>
        <time>2012-09-15T18:15:23Z</time>
      </trkpt>
      <trkpt lat="53.9635712" lon="26.9872288">
        <ele>213.0</ele>
        <time>2012-09-15T18:15:27Z</time>
      </trkpt>
      <trkpt lat="53.9636366" lon="26.9877225">
        <ele>218.0</ele>
        <time>2012-09-15T18:15:32Z</time>
      </trkpt>
      <trkpt lat="53.9636286" lon="26.9880265">
        <ele>216.0</ele>
        <time>2012-09-15T18:15:36Z</time>
      </trkpt>
      <trkpt lat="53.9636288" lon="26.9885558">
        <ele>214.0</ele>
        <time>2012-09-15T18:15:44Z</time>
      </trkpt>
      <trkpt lat="53.963748" lon="26.9890547">
        <ele>218.0</ele>
        <time>2012-09-15T18:15:49Z</time>
      </trkpt>
      <trkpt lat="53.963816" lon="26.9896663">
        <ele>221.0</ele>
        <time>2012-09-15T18:15:55Z</time>
      </trkpt>
      <trkpt lat="53.963848" lon="26.9902443">
        <ele>220.0</ele>
        <time>2012-09-15T18:16:00Z</time>
      </trkpt>
      <trkpt lat="53.9638581" lon="26.990793">
        <ele>218.0</ele>
        <time>2012-09-15T18:16:05Z</time>
      </trkpt>
      <trkpt lat="53.9638964" lon="26.9913841">
        <ele>216.0</ele>
        <time>2012-09-15T18:16:11Z</time>
      </trkpt>
      <trkpt lat="53.9638576" lon="26.9921419">
        <ele>214.0</ele>
        <time>2012-09-15T18:16:17Z</time>
      </trkpt>
      <trkpt lat="53.9638983" lon="26.9926268">
        <ele>214.0</ele>
        <time>2012-09-15T18:16:21Z</time>
      </trkpt>
      <trkpt lat="53.9638924" lon="26.9931986">
        <ele>213.0</ele>
        <time>2012-09-15T18:16:27Z</time>
      </trkpt>
      <trkpt lat="53.963987" lon="26.9937227">
        <ele>213.0</ele>
        <time>2012-09-15T18:16:33Z</time>
      </trkpt>
      <trkpt lat="53.9640493" lon="26.9942433">
        <ele>212.0</ele>
        <time>2012-09-15T18:16:41Z</time>
      </trkpt>
      <trkpt lat="53.9641125" lon="26.9947883">
        <ele>215.0</ele>
        <time>2012-09-15T18:16:48Z</time>
      </trkpt>
      <trkpt lat="53.9641497" lon="26.9950439">
        <ele>214.0</ele>
        <time>2012-09-15T18:16:52Z</time>
      </trkpt>
      <trkpt lat="53.9642128" lon="26.9955513">
        <ele>213.0</ele>
        <time>2012-09-15T18:17:00Z</time>
      </trkpt>
      <trkpt lat="53.9643534" lon="26.9955194">
        <ele>209.0</ele>
        <time>2012-09-15T18:17:09Z</time>
      </trkpt>
      <trkpt lat="53.9646264" lon="26.995314">
        <ele>204.0</ele>
        <time>2012-09-15T18:17:16Z</time>
      </trkpt>
      <trkpt lat="53.9647793" lon="26.9952384">
        <ele>204.0</ele>
        <time>2012-09-15T18:17:22Z</time>
      </trkpt>
      <trkpt lat="53.9649036" lon="26.9951303">
        <ele>205.0</ele>
        <time>2012-09-15T18:17:27Z</time>
      </trkpt>
      <trkpt lat="53.9651906" lon="26.9949458">
        <ele>212.0</ele>
        <time>2012-09-15T18:17:34Z</time>
      </trkpt>
      <trkpt lat="53.9653336" lon="26.9948335">
        <ele>213.0</ele>
        <time>2012-09-15T18:17:40Z</time>
      </trkpt>
      <trkpt lat="53.9656736" lon="26.9946502">
        <ele>213.0</ele>
        <time>2012-09-15T18:17:46Z</time>
      </trkpt>
      <trkpt lat="53.9659629" lon="26.9945212">
        <ele>214.0</ele>
        <time>2012-09-15T18:17:53Z</time>
      </trkpt>
      <trkpt lat="53.9662317" lon="26.9943613">
        <ele>213.0</ele>
        <time>2012-09-15T18:18:04Z</time>
      </trkpt>
      <trkpt lat="53.9664093" lon="26.994312">
        <ele>212.0</ele>
        <time>2012-09-15T18:18:09Z</time>
      </trkpt>
      <trkpt lat="53.9666971" lon="26.9941662">
        <ele>214.0</ele>
        <time>2012-09-15T18:18:14Z</time>
      </trkpt>
      <trkpt lat="53.9669866" lon="26.993965">
        <ele>213.0</ele>
        <time>2012-09-15T18:18:20Z</time>
      </trkpt>
      <trkpt lat="53.9672676" lon="26.9937847">
        <ele>214.0</ele>
        <time>2012-09-15T18:18:26Z</time>
      </trkpt>
      <trkpt lat="53.9675999" lon="26.9935907">
        <ele>218.0</ele>
        <time>2012-09-15T18:18:32Z</time>
      </trkpt>
      <trkpt lat="53.9678479" lon="26.9933994">
        <ele>219.0</ele>
        <time>2012-09-15T18:18:37Z</time>
      </trkpt>
      <trkpt lat="53.9681433" lon="26.9932098">
        <ele>219.0</ele>
        <time>2012-09-15T18:18:45Z</time>
      </trkpt>
      <trkpt lat="53.9685312" lon="26.9930091">
        <ele>218.0</ele>
        <time>2012-09-15T18:18:50Z</time>
      </trkpt>
      <trkpt lat="53.9688582" lon="26.9928276">
        <ele>213.0</ele>
        <time>2012-09-15T18:18:56Z</time>
      </trkpt>
      <trkpt lat="53.969151" lon="26.9927166">
        <ele>209.0</ele>
        <time>2012-09-15T18:19:02Z</time>
      </trkpt>
      <trkpt lat="53.9694592" lon="26.9925486">
        <ele>209.0</ele>
        <time>2012-09-15T18:19:07Z</time>
      </trkpt>
      <trkpt lat="53.9697946" lon="26.9923741">
        <ele>209.0</ele>
        <time>2012-09-15T18:19:14Z</time>
      </trkpt>
      <trkpt lat="53.9700952" lon="26.9922006">
        <ele>209.0</ele>
        <time>2012-09-15T18:19:19Z</time>
      </trkpt>
      <trkpt lat="53.9705942" lon="26.9919653">
        <ele>200.0</ele>
        <time>2012-09-15T18:19:26Z</time>
      </trkpt>
      <trkpt lat="53.9709102" lon="26.9916414">
        <ele>199.0</ele>
        <time>2012-09-15T18:19:31Z</time>
      </trkpt>
      <trkpt lat="53.9712264" lon="26.9913511">
        <ele>198.0</ele>
        <time>2012-09-15T18:19:38Z</time>
      </trkpt>
      <trkpt lat="53.9714726" lon="26.9911085">
        <ele>200.0</ele>
        <time>2012-09-15T18:19:45Z</time>
      </trkpt>
      <trkpt lat="53.9717176" lon="26.9908376">
        <ele>201.0</ele>
        <time>2012-09-15T18:19:51Z</time>
      </trkpt>
      <trkpt lat="53.971965" lon="26.9905399">
        <ele>197.0</ele>
        <time>2012-09-15T18:19:58Z</time>
      </trkpt>
      <trkpt lat="53.972252" lon="26.9902766">
        <ele>204.0</ele>
        <time>2012-09-15T18:20:05Z</time>
      </trkpt>
      <trkpt lat="53.9723893" lon="26.9901763">
        <ele>204.0</ele>
        <time>2012-09-15T18:20:09Z</time>
      </trkpt>
      <trkpt lat="53.9725273" lon="26.990043">
        <ele>202.0</ele>
        <time>2012-09-15T18:20:15Z</time>
      </trkpt>
      <trkpt lat="53.9726515" lon="26.9899119">
        <ele>199.0</ele>
        <time>2012-09-15T18:20:20Z</time>
      </trkpt>
      <trkpt lat="53.9727693" lon="26.9897668">
        <ele>197.0</ele>
        <time>2012-09-15T18:20:27Z</time>
      </trkpt>
      <trkpt lat="53.9729135" lon="26.989692">
        <ele>197.0</ele>
        <time>2012-09-15T18:20:33Z</time>
      </trkpt>
      <trkpt lat="53.9730615" lon="26.9895645">
        <ele>195.0</ele>
        <time>2012-09-15T18:20:39Z</time>
      </trkpt>
      <trkpt lat="53.9731932" lon="26.9894134">
        <ele>195.0</ele>
        <time>2012-09-15T18:20:43Z</time>
      </trkpt>
      <trkpt lat="53.9733122" lon="26.9892451">
        <ele>195.0</ele>
        <time>2012-09-15T18:20:49Z</time>
      </trkpt>
      <trkpt lat="53.9735181" lon="26.9889446">
        <ele>191.0</ele>
        <time>2012-09-15T18:20:55Z</time>
      </trkpt>
      <trkpt lat="53.973526" lon="26.9886801">
        <ele>192.0</ele>
        <time>2012-09-15T18:21:03Z</time>
      </trkpt>
      <trkpt lat="53.973537" lon="26.98842">
        <ele>192.0</ele>
        <time>2012-09-15T18:21:09Z</time>
      </trkpt>
      <trkpt lat="53.9735525" lon="26.9881837">
        <ele>191.0</ele>
        <time>2012-09-15T18:21:14Z</time>
      </trkpt>
      <trkpt lat="53.9735766" lon="26.9879515">
        <ele>192.0</ele>
        <time>2012-09-15T18:21:20Z</time>
      </trkpt>
      <trkpt lat="53.9735561" lon="26.9877161">
        <ele>194.0</ele>
        <time>2012-09-15T18:21:25Z</time>
      </trkpt>
      <trkpt lat="53.9735838" lon="26.9874432">
        <ele>196.0</ele>
        <time>2012-09-15T18:21:30Z</time>
      </trkpt>
      <trkpt lat="53.9736095" lon="26.9871981">
        <ele>197.0</ele>
        <time>2012-09-15T18:21:34Z</time>
      </trkpt>
      <trkpt lat="53.9736106" lon="26.9867108">
        <ele>200.0</ele>
        <time>2012-09-15T18:21:44Z</time>
      </trkpt>
      <trkpt lat="53.9736353" lon="26.986464">
        <ele>201.0</ele>
        <time>2012-09-15T18:21:48Z</time>
      </trkpt>
      <trkpt lat="53.9736256" lon="26.9861961">
        <ele>202.0</ele>
        <time>2012-09-15T18:21:54Z</time>
      </trkpt>
      <trkpt lat="53.9736351" lon="26.9856943">
        <ele>205.0</ele>
        <time>2012-09-15T18:22:01Z</time>
      </trkpt>
      <trkpt lat="53.9736423" lon="26.9851962">
        <ele>204.0</ele>
        <time>2012-09-15T18:22:09Z</time>
      </trkpt>
      <trkpt lat="53.9736527" lon="26.9849608">
        <ele>200.0</ele>
        <time>2012-09-15T18:22:14Z</time>
      </trkpt>
      <trkpt lat="53.9736454" lon="26.9847008">
        <ele>203.0</ele>
        <time>2012-09-15T18:22:19Z</time>
      </trkpt>
      <trkpt lat="53.9736307" lon="26.9841903">
        <ele>199.0</ele>
        <time>2012-09-15T18:22:27Z</time>
      </trkpt>
      <trkpt lat="53.9737185" lon="26.983999">
        <ele>202.0</ele>
        <time>2012-09-15T18:22:36Z</time>
      </trkpt>
      <trkpt lat="53.973856" lon="26.9839596">
        <ele>204.0</ele>
        <time>2012-09-15T18:22:40Z</time>
      </trkpt>
      <trkpt lat="53.974003" lon="26.9839137">
        <ele>205.0</ele>
        <time>2012-09-15T18:22:45Z</time>
      </trkpt>
      <trkpt lat="53.974319" lon="26.9838875">
        <ele>206.0</ele>
        <time>2012-09-15T18:22:52Z</time>
      </trkpt>
      <trkpt lat="53.9744698" lon="26.9838738">
        <ele>207.0</ele>
        <time>2012-09-15T18:22:56Z</time>
      </trkpt>
      <trkpt lat="53.9746051" lon="26.9838751">
        <ele>208.0</ele>
        <time>2012-09-15T18:23:01Z</time>
      </trkpt>
      <trkpt lat="53.9747587" lon="26.983852">
        <ele>206.0</ele>
        <time>2012-09-15T18:23:05Z</time>
      </trkpt>
      <trkpt lat="53.9749246" lon="26.9838002">
        <ele>208.0</ele>
        <time>2012-09-15T18:23:09Z</time>
      </trkpt>
      <trkpt lat="53.9750877" lon="26.9837453">
        <ele>208.0</ele>
        <time>2012-09-15T18:23:14Z</time>
      </trkpt>
      <trkpt lat="53.9752337" lon="26.9836953">
        <ele>208.0</ele>
        <time>2012-09-15T18:23:19Z</time>
      </trkpt>
      <trkpt lat="53.9755582" lon="26.9836179">
        <ele>206.0</ele>
        <time>2012-09-15T18:23:26Z</time>
      </trkpt>
      <trkpt lat="53.97573" lon="26.9836">
        <ele>206.0</ele>
        <time>2012-09-15T18:23:30Z</time>
      </trkpt>
      <trkpt lat="53.9758898" lon="26.9836199">
        <ele>208.0</ele>
        <time>2012-09-15T18:23:35Z</time>
      </trkpt>
      <trkpt lat="53.9760519" lon="26.9836194">
        <ele>210.0</ele>
        <time>2012-09-15T18:23:39Z</time>
      </trkpt>
      <trkpt lat="53.9764092" lon="26.9836901">
        <ele>208.0</ele>
        <time>2012-09-15T18:23:46Z</time>
      </trkpt>
      <trkpt lat="53.9767209" lon="26.9836385">
        <ele>202.0</ele>
        <time>2012-09-15T18:23:53Z</time>
      </trkpt>
      <trkpt lat="53.9770084" lon="26.9836441">
        <ele>196.0</ele>
        <time>2012-09-15T18:23:59Z</time>
      </trkpt>
      <trkpt lat="53.9773512" lon="26.9836762">
        <ele>197.0</ele>
        <time>2012-09-15T18:24:06Z</time>
      </trkpt>
      <trkpt lat="53.9777932" lon="26.9836844">
        <ele>195.0</ele>
        <time>2012-09-15T18:24:10Z</time>
      </trkpt>
      <trkpt lat="53.9780919" lon="26.9837161">
        <ele>194.0</ele>
        <time>2012-09-15T18:24:17Z</time>
      </trkpt>
      <trkpt lat="53.9782384" lon="26.9837278">
        <ele>197.0</ele>
        <time>2012-09-15T18:24:30Z</time>
      </trkpt>
      <trkpt lat="53.9782384" lon="26.9837278">
        <time>2012-09-15T18:24:44Z</time>
      </trkpt>
    </trkseg>
    <trkseg>
      <trkpt lat="53.9782384" lon="26.9837278">
        <time>2012-09-15T18:24:45Z</time>
      </trkpt>
      <trkpt lat="53.9781934" lon="26.9836629">
        <ele>198.0</ele>
        <time>2012-09-15T18:24:45Z</time>
      </trkpt>
      <trkpt lat="53.9782903" lon="26.9834572">
        <ele>188.0</ele>
        <time>2012-09-15T18:24:57Z</time>
      </trkpt>
      <trkpt lat="53.9785374" lon="26.9831715">
        <ele>192.0</ele>
        <time>2012-09-15T18:25:04Z</time>
      </trkpt>
      <trkpt lat="53.978671" lon="26.9830514">
        <ele>193.0</ele>
        <time>2012-09-15T18:25:08Z</time>
      </trkpt>
      <trkpt lat="53.9787997" lon="26.9829409">
        <ele>193.0</ele>
        <time>2012-09-15T18:25:13Z</time>
      </trkpt>
      <trkpt lat="53.9790467" lon="26.9827065">
        <ele>193.0</ele>
        <time>2012-09-15T18:25:20Z</time>
      </trkpt>
      <trkpt lat="53.9793081" lon="26.9824526">
        <ele>192.0</ele>
        <time>2012-09-15T18:25:27Z</time>
      </trkpt>
      <trkpt lat="53.9795743" lon="26.9821753">
        <ele>193.0</ele>
        <time>2012-09-15T18:25:34Z</time>
      </trkpt>
      <trkpt lat="53.9798422" lon="26.9818002">
        <ele>195.0</ele>
        <time>2012-09-15T18:25:40Z</time>
      </trkpt>
      <trkpt lat="53.9801311" lon="26.9814657">
        <ele>194.0</ele>
        <time>2012-09-15T18:25:44Z</time>
      </trkpt>
      <trkpt lat="53.9803944" lon="26.9812402">
        <ele>194.0</ele>
        <time>2012-09-15T18:25:49Z</time>
      </trkpt>
      <trkpt lat="53.9806559" lon="26.9809253">
        <ele>193.0</ele>
        <time>2012-09-15T18:25:56Z</time>
      </trkpt>
      <trkpt lat="53.9809464" lon="26.9806749">
        <ele>189.0</ele>
        <time>2012-09-15T18:26:01Z</time>
      </trkpt>
      <trkpt lat="53.9811978" lon="26.9803588">
        <ele>190.0</ele>
        <time>2012-09-15T18:26:07Z</time>
      </trkpt>
      <trkpt lat="53.9813538" lon="26.9799146">
        <ele>192.0</ele>
        <time>2012-09-15T18:26:15Z</time>
      </trkpt>
      <trkpt lat="53.981288" lon="26.9794271">
        <ele>188.0</ele>
        <time>2012-09-15T18:26:23Z</time>
      </trkpt>
      <trkpt lat="53.9812177" lon="26.9792175">
        <ele>190.0</ele>
        <time>2012-09-15T18:26:28Z</time>
      </trkpt>
      <trkpt lat="53.9810781" lon="26.9790526">
        <ele>192.0</ele>
        <time>2012-09-15T18:26:33Z</time>
      </trkpt>
      <trkpt lat="53.9809042" lon="26.9789945">
        <ele>192.0</ele>
        <time>2012-09-15T18:26:37Z</time>
      </trkpt>
      <trkpt lat="53.980599" lon="26.9788563">
        <ele>193.0</ele>
        <time>2012-09-15T18:26:47Z</time>
      </trkpt>
      <trkpt lat="53.9803214" lon="26.9786356">
        <ele>196.0</ele>
        <time>2012-09-15T18:26:54Z</time>
      </trkpt>
      <trkpt lat="53.980197" lon="26.9784905">
        <ele>195.0</ele>
        <time>2012-09-15T18:26:58Z</time>
      </trkpt>
      <trkpt lat="53.980072" lon="26.9782877">
        <ele>193.0</ele>
        <time>2012-09-15T18:27:03Z</time>
      </trkpt>
      <trkpt lat="53.979835" lon="26.9779141">
        <ele>194.0</ele>
        <time>2012-09-15T18:27:11Z</time>
      </trkpt>
      <trkpt lat="53.9797093" lon="26.9777832">
        <ele>195.0</ele>
        <time>2012-09-15T18:27:15Z</time>
      </trkpt>
      <trkpt lat="53.9795407" lon="26.9777159">
        <ele>194.0</ele>
        <time>2012-09-15T18:27:19Z</time>
      </trkpt>
      <trkpt lat="53.9794143" lon="26.9776312">
        <ele>194.0</ele>
        <time>2012-09-15T18:27:24Z</time>
      </trkpt>
      <trkpt lat="53.979272" lon="26.977562">
        <ele>193.0</ele>
        <time>2012-09-15T18:27:29Z</time>
      </trkpt>
      <trkpt lat="53.9791467" lon="26.9774448">
        <ele>190.0</ele>
        <time>2012-09-15T18:27:35Z</time>
      </trkpt>
      <trkpt lat="53.9790436" lon="26.9772913">
        <ele>189.0</ele>
        <time>2012-09-15T18:27:40Z</time>
      </trkpt>
      <trkpt lat="53.9789186" lon="26.9771203">
        <ele>189.0</ele>
        <time>2012-09-15T18:27:44Z</time>
      </trkpt>
      <trkpt lat="53.978806" lon="26.9769786">
        <ele>185.0</ele>
        <time>2012-09-15T18:27:49Z</time>
      </trkpt>
      <trkpt lat="53.978749" lon="26.9767684">
        <ele>187.0</ele>
        <time>2012-09-15T18:27:54Z</time>
      </trkpt>
      <trkpt lat="53.9787628" lon="26.9762499">
        <ele>191.0</ele>
        <time>2012-09-15T18:28:02Z</time>
      </trkpt>
      <trkpt lat="53.9788028" lon="26.9759723">
        <ele>193.0</ele>
        <time>2012-09-15T18:28:07Z</time>
      </trkpt>
      <trkpt lat="53.9787703" lon="26.9757505">
        <ele>195.0</ele>
        <time>2012-09-15T18:28:15Z</time>
      </trkpt>
      <trkpt lat="53.978655" lon="26.9756145">
        <ele>192.0</ele>
        <time>2012-09-15T18:28:22Z</time>
      </trkpt>
      <trkpt lat="53.9786061" lon="26.9753678">
        <ele>194.0</ele>
        <time>2012-09-15T18:28:30Z</time>
      </trkpt>
      <trkpt lat="53.9786178" lon="26.9751394">
        <ele>195.0</ele>
        <time>2012-09-15T18:28:36Z</time>
      </trkpt>
      <trkpt lat="53.9786506" lon="26.9749105">
        <ele>195.0</ele>
        <time>2012-09-15T18:28:41Z</time>
      </trkpt>
      <trkpt lat="53.9786606" lon="26.9746699">
        <ele>195.0</ele>
        <time>2012-09-15T18:28:46Z</time>
      </trkpt>
      <trkpt lat="53.978708" lon="26.9744247">
        <ele>187.0</ele>
        <time>2012-09-15T18:28:53Z</time>
      </trkpt>
      <trkpt lat="53.9787785" lon="26.97418">
        <ele>187.0</ele>
        <time>2012-09-15T18:28:58Z</time>
      </trkpt>
      <trkpt lat="53.9789238" lon="26.9741352">
        <ele>185.0</ele>
        <time>2012-09-15T18:29:08Z</time>
      </trkpt>
      <trkpt lat="53.9790525" lon="26.9742095">
        <ele>184.0</ele>
        <time>2012-09-15T18:29:13Z</time>
      </trkpt>
      <trkpt lat="53.9790525" lon="26.9742095">
        <time>2012-09-15T18:29:26Z</time>
      </trkpt>
    </trkseg>
    <trkseg>
      <trkpt lat="53.9790525" lon="26.9742095">
        <time>2012-09-15T18:29:31Z</time>
      </trkpt>
      <trkpt lat="53.9791268" lon="26.9742447">
        <ele>184.0</ele>
        <time>2012-09-15T18:29:33Z</time>
      </trkpt>
      <trkpt lat="53.9792637" lon="26.9742369">
        <ele>184.0</ele>
        <time>2012-09-15T18:29:54Z</time>
      </trkpt>
      <trkpt lat="53.9792637" lon="26.9742369">
        <time>2012-09-15T18:30:01Z</time>
      </trkpt>
    </trkseg>
    <trkseg>
      <trkpt lat="53.9792637" lon="26.9742369">
        <time>2012-09-15T18:30:17Z</time>
      </trkpt>
      <trkpt lat="53.9793055" lon="26.974162">
        <ele>182.0</ele>
        <time>2012-09-15T18:30:18Z</time>
      </trkpt>
      <trkpt lat="53.9794401" lon="26.9740491">
        <ele>185.0</ele>
        <time>2012-09-15T18:30:24Z</time>
      </trkpt>
      <trkpt lat="53.9795961" lon="26.973992">
        <ele>184.0</ele>
        <time>2012-09-15T18:30:29Z</time>
      </trkpt>
      <trkpt lat="53.9797345" lon="26.9739999">
        <ele>183.0</ele>
        <time>2012-09-15T18:30:34Z</time>
      </trkpt>
      <trkpt lat="53.9798694" lon="26.9740707">
        <ele>183.0</ele>
        <time>2012-09-15T18:30:39Z</time>
      </trkpt>
      <trkpt lat="53.9800036" lon="26.9741586">
        <ele>182.0</ele>
        <time>2012-09-15T18:30:45Z</time>
      </trkpt>
      <trkpt lat="53.9801474" lon="26.9741301">
        <ele>182.0</ele>
        <time>2012-09-15T18:30:50Z</time>
      </trkpt>
      <trkpt lat="53.9801474" lon="26.9741301">
        <time>2012-09-15T18:31:04Z</time>
      </trkpt>
    </trkseg>
    <trkseg>
      <trkpt lat="53.9801474" lon="26.9741301">
        <time>2012-09-15T18:31:15Z</time>
      </trkpt>
      <trkpt lat="53.980245" lon="26.9740803">
        <ele>183.0</ele>
        <time>2012-09-15T18:31:15Z</time>
      </trkpt>
      <trkpt lat="53.980245" lon="26.9740803">
        <time>2012-09-15T18:31:19Z</time>
      </trkpt>
    </trkseg>
  </trk>
</gpx>